PWSweather.com
Personal Weather Stations
Station Observations
OZIERI
Punta Idda, OzieriIT

Punta IddaOzieriIT

Lat: 40.584142, Lon: 9.007657999999992

Elevation: 1483

Station Type: Lacrosse ws2350

Latest ConditionsUpdated 11:04:06 PM GMT+01:01 Saturday, Feb 23, 2019
Currently Today's Max Today's Min Today's Average
Temperature 40.5°F4.7°C 49.5°F9.7°C 40.5°F4.7°C 45.4°F7.4°C
Dew Point 20.8°F-6.2°C 42.6°F5.9°C 13.8°F-10.1°C 30.1°F-1.1°C
Winds 10.7 mph ENE17.2 kmh ENE 16.8 mph -27.0 kmh - - 6.0 mph 9.7 kmh
Wind Gusts 23.3 mph37.5 kmh 37.4 mph60.2 kmh - -
Humidity 45% 85% 28% 59%
Pressure 30.28 in1025.4 mb 30.30 in1026.1 mb 30.22 in1023.4 mb -
Hour Temp Dew Point Humidity Winds Wind Gusts Pressure Precip Precip Rate Daily Precip Total
11:04 PM 40.5°F4.7°C 20.8°F-6.2°C 45% 10.7 mph ENE17.2 kmh ENE 23.3 mph37.5 kmh 30.28 in1025.4 mb 0.00 in0.0 mm 0.00 in0.0 mm 0.00 in0.0 mm
11:01 PM 40.6°F4.8°C 21.0°F-6.1°C 45% 8.7 mph NW14.0 kmh NW 16.3 mph26.2 kmh 30.28 in1025.4 mb 0.00 in0.0 mm 0.00 in0.0 mm 0.00 in0.0 mm
10:59 PM 40.6°F4.8°C 20.5°F-6.4°C 44% 7.8 mph NNE12.6 kmh NNE 12.8 mph20.6 kmh 30.28 in1025.4 mb 0.00 in0.0 mm 0.00 in0.0 mm 0.00 in0.0 mm
10:57 PM 40.8°F4.9°C 20.7°F-6.3°C 44% 7.8 mph SE12.6 kmh SE 9.8 mph15.8 kmh 30.27 in1025.1 mb 0.00 in0.0 mm 0.00 in0.0 mm 0.00 in0.0 mm
10:55 PM 40.8°F4.9°C 20.7°F-6.3°C 44% 8.5 mph NE13.7 kmh NE 12.3 mph19.8 kmh 30.27 in1025.1 mb 0.00 in0.0 mm 0.00 in0.0 mm 0.00 in0.0 mm
10:53 PM 40.8°F4.9°C 20.7°F-6.3°C 44% 8.5 mph E13.7 kmh E 13.4 mph21.6 kmh 30.28 in1025.4 mb 0.00 in0.0 mm 0.00 in0.0 mm 0.00 in0.0 mm
10:50 PM 41.0°F5.0°C 20.8°F-6.2°C 44% 9.2 mph E14.8 kmh E 15.0 mph24.1 kmh 30.27 in1025.1 mb 0.00 in0.0 mm 0.00 in0.0 mm 0.00 in0.0 mm
10:48 PM 41.0°F5.0°C 20.3°F-6.5°C 43% 7.8 mph SSE12.6 kmh SSE 15.7 mph25.3 kmh 30.27 in1025.1 mb 0.00 in0.0 mm 0.00 in0.0 mm 0.00 in0.0 mm
10:46 PM 41.2°F5.1°C 20.3°F-6.5°C 43% 8.7 mph ESE14.0 kmh ESE 12.3 mph19.8 kmh 30.27 in1025.1 mb 0.00 in0.0 mm 0.00 in0.0 mm 0.00 in0.0 mm
10:44 PM 41.2°F5.1°C 20.3°F-6.5°C 43% 8.3 mph SSW13.4 kmh SSW 14.5 mph23.3 kmh 30.27 in1025.1 mb 0.00 in0.0 mm 0.00 in0.0 mm 0.00 in0.0 mm
10:42 PM 41.4°F5.2°C 20.5°F-6.4°C 43% 8.1 mph ENE13.0 kmh ENE 14.5 mph23.3 kmh 30.27 in1025.1 mb 0.00 in0.0 mm 0.00 in0.0 mm 0.00 in0.0 mm
10:39 PM 41.4°F5.2°C 19.9°F-6.7°C 42% 7.8 mph ENE12.6 kmh ENE 10.5 mph16.9 kmh 30.27 in1025.1 mb 0.00 in0.0 mm 0.00 in0.0 mm 0.00 in0.0 mm
10:37 PM 41.5°F5.3°C 20.1°F-6.6°C 42% 8.9 mph NNE14.3 kmh NNE 15.4 mph24.8 kmh 30.27 in1025.1 mb 0.00 in0.0 mm 0.00 in0.0 mm 0.00 in0.0 mm
10:35 PM 41.5°F5.3°C 20.1°F-6.6°C 42% 8.3 mph ENE13.4 kmh ENE 11.4 mph18.3 kmh 30.27 in1025.1 mb 0.00 in0.0 mm 0.00 in0.0 mm 0.00 in0.0 mm
10:33 PM 41.5°F5.3°C 19.6°F-6.9°C 41% 8.5 mph ESE13.7 kmh ESE 14.1 mph22.7 kmh 30.27 in1025.1 mb 0.00 in0.0 mm 0.00 in0.0 mm 0.00 in0.0 mm
10:30 PM 41.7°F5.4°C 20.3°F-6.5°C 42% 8.7 mph E14.0 kmh E 14.3 mph23.0 kmh 30.27 in1025.1 mb 0.00 in0.0 mm 0.00 in0.0 mm 0.00 in0.0 mm
10:28 PM 41.9°F5.5°C 20.5°F-6.4°C 42% 8.9 mph ENE14.3 kmh ENE 11.6 mph18.7 kmh 30.27 in1025.1 mb 0.00 in0.0 mm 0.00 in0.0 mm 0.00 in0.0 mm
10:26 PM 41.9°F5.5°C 19.9°F-6.7°C 41% 11.4 mph E18.3 kmh E 20.8 mph33.5 kmh 30.27 in1025.1 mb 0.00 in0.0 mm 0.00 in0.0 mm 0.00 in0.0 mm
10:24 PM 41.9°F5.5°C 19.9°F-6.7°C 41% 10.3 mph NNE16.6 kmh NNE 16.8 mph27.0 kmh 30.27 in1025.1 mb 0.00 in0.0 mm 0.00 in0.0 mm 0.00 in0.0 mm
10:22 PM 41.9°F5.5°C 19.9°F-6.7°C 41% 12.1 mph E19.5 kmh E 23.3 mph37.5 kmh 30.27 in1025.1 mb 0.00 in0.0 mm 0.00 in0.0 mm 0.00 in0.0 mm
10:20 PM 41.9°F5.5°C 19.9°F-6.7°C 41% 7.8 mph SSE12.6 kmh SSE 13.2 mph21.2 kmh 30.27 in1025.1 mb 0.00 in0.0 mm 0.00 in0.0 mm 0.00 in0.0 mm
10:17 PM 41.9°F5.5°C 19.9°F-6.7°C 41% 8.1 mph NE13.0 kmh NE 13.0 mph20.9 kmh 30.26 in1024.7 mb 0.00 in0.0 mm 0.00 in0.0 mm 0.00 in0.0 mm
10:15 PM 42.1°F5.6°C 19.6°F-6.9°C 40% 7.2 mph NNE11.6 kmh NNE 8.9 mph14.3 kmh 30.26 in1024.7 mb 0.00 in0.0 mm 0.00 in0.0 mm 0.00 in0.0 mm
10:13 PM 42.1°F5.6°C 19.6°F-6.9°C 40% 8.5 mph NNE13.7 kmh NNE 11.0 mph17.7 kmh 30.27 in1025.1 mb 0.00 in0.0 mm 0.00 in0.0 mm 0.00 in0.0 mm
10:11 PM 42.1°F5.6°C 19.6°F-6.9°C 40% 8.3 mph 13.4 kmh 17.2 mph27.7 kmh 30.26 in1024.7 mb 0.00 in0.0 mm 0.00 in0.0 mm 0.00 in0.0 mm
10:09 PM 42.1°F5.6°C 18.9°F-7.3°C 39% 6.3 mph ENE10.1 kmh ENE 7.4 mph11.9 kmh 30.26 in1024.7 mb 0.00 in0.0 mm 0.00 in0.0 mm 0.00 in0.0 mm
10:07 PM 42.1°F5.6°C 18.9°F-7.3°C 39% 8.1 mph ENE13.0 kmh ENE 13.0 mph20.9 kmh 30.26 in1024.7 mb 0.00 in0.0 mm 0.00 in0.0 mm 0.00 in0.0 mm
10:04 PM 42.1°F5.6°C 18.9°F-7.3°C 39% 8.7 mph E14.0 kmh E 12.3 mph19.8 kmh 30.26 in1024.7 mb 0.00 in0.0 mm 0.00 in0.0 mm 0.00 in0.0 mm
10:02 PM 42.4°F5.8°C 19.2°F-7.1°C 39% 9.8 mph ENE15.8 kmh ENE 13.0 mph20.9 kmh 30.25 in1024.4 mb 0.00 in0.0 mm 0.00 in0.0 mm 0.00 in0.0 mm
10:00 PM 42.4°F5.8°C 18.7°F-7.4°C 38% 11.2 mph ESE18.0 kmh ESE 19.2 mph30.9 kmh 30.25 in1024.4 mb 0.00 in0.0 mm 0.00 in0.0 mm 0.00 in0.0 mm
09:58 PM 42.4°F5.8°C 18.7°F-7.4°C 38% 8.9 mph ESE14.3 kmh ESE 14.5 mph23.3 kmh 30.25 in1024.4 mb 0.00 in0.0 mm 0.00 in0.0 mm 0.00 in0.0 mm
09:55 PM 42.4°F5.8°C 18.7°F-7.4°C 38% 8.7 mph SE14.0 kmh SE 14.8 mph23.8 kmh 30.25 in1024.4 mb 0.00 in0.0 mm 0.00 in0.0 mm 0.00 in0.0 mm
09:53 PM 42.4°F5.8°C 18.0°F-7.8°C 37% 6.5 mph ENE10.5 kmh ENE 9.8 mph15.8 kmh 30.25 in1024.4 mb 0.00 in0.0 mm 0.00 in0.0 mm 0.00 in0.0 mm
09:51 PM 42.4°F5.8°C 18.0°F-7.8°C 37% 6.0 mph NE9.7 kmh NE 4.9 mph7.9 kmh 30.25 in1024.4 mb 0.00 in0.0 mm 0.00 in0.0 mm 0.00 in0.0 mm
09:48 PM 42.6°F5.9°C 18.1°F-7.7°C 37% 8.9 mph ENE14.3 kmh ENE 15.0 mph24.1 kmh 30.25 in1024.4 mb 0.00 in0.0 mm 0.00 in0.0 mm 0.00 in0.0 mm
09:46 PM 42.6°F5.9°C 18.1°F-7.7°C 37% 8.1 mph ENE13.0 kmh ENE 10.5 mph16.9 kmh 30.25 in1024.4 mb 0.00 in0.0 mm 0.00 in0.0 mm 0.00 in0.0 mm
09:44 PM 42.6°F5.9°C 18.1°F-7.7°C 37% 8.1 mph ENE13.0 kmh ENE 15.0 mph24.1 kmh 30.25 in1024.4 mb 0.00 in0.0 mm 0.00 in0.0 mm 0.00 in0.0 mm
09:42 PM 42.6°F5.9°C 17.6°F-8.0°C 36% 7.2 mph E11.6 kmh E 14.5 mph23.3 kmh 30.25 in1024.4 mb 0.00 in0.0 mm 0.00 in0.0 mm 0.00 in0.0 mm
09:40 PM 42.6°F5.9°C 17.6°F-8.0°C 36% 7.6 mph 12.2 kmh 10.5 mph16.9 kmh 30.25 in1024.4 mb 0.00 in0.0 mm 0.00 in0.0 mm 0.00 in0.0 mm
09:38 PM 42.6°F5.9°C 17.6°F-8.0°C 36% 8.9 mph 14.3 kmh 16.8 mph27.0 kmh 30.25 in1024.4 mb 0.00 in0.0 mm 0.00 in0.0 mm 0.00 in0.0 mm
09:36 PM 42.6°F5.9°C 17.6°F-8.0°C 36% 8.3 mph ENE13.4 kmh ENE 15.4 mph24.8 kmh 30.25 in1024.4 mb 0.00 in0.0 mm 0.00 in0.0 mm 0.00 in0.0 mm
09:33 PM 42.6°F5.9°C 16.9°F-8.4°C 35% 7.8 mph ENE12.6 kmh ENE 10.3 mph16.6 kmh 30.25 in1024.4 mb 0.00 in0.0 mm 0.00 in0.0 mm 0.00 in0.0 mm
09:31 PM 42.6°F5.9°C 16.9°F-8.4°C 35% 8.5 mph ENE13.7 kmh ENE 13.9 mph22.4 kmh 30.25 in1024.4 mb 0.00 in0.0 mm 0.00 in0.0 mm 0.00 in0.0 mm
09:29 PM 42.6°F5.9°C 16.9°F-8.4°C 35% 7.2 mph SE11.6 kmh SE 14.5 mph23.3 kmh 30.25 in1024.4 mb 0.00 in0.0 mm 0.00 in0.0 mm 0.00 in0.0 mm
09:27 PM 42.8°F6.0°C 16.3°F-8.7°C 34% 5.8 mph WNW9.3 kmh WNW 13.4 mph21.6 kmh 30.25 in1024.4 mb 0.00 in0.0 mm 0.00 in0.0 mm 0.00 in0.0 mm
09:24 PM 42.8°F6.0°C 16.3°F-8.7°C 34% 6.3 mph 10.1 kmh 9.2 mph14.8 kmh 30.25 in1024.4 mb 0.00 in0.0 mm 0.00 in0.0 mm 0.00 in0.0 mm
09:22 PM 43.0°F6.1°C 16.5°F-8.6°C 34% 7.8 mph ENE12.6 kmh ENE 9.2 mph14.8 kmh 30.25 in1024.4 mb 0.00 in0.0 mm 0.00 in0.0 mm 0.00 in0.0 mm
09:20 PM 43.0°F6.1°C 16.5°F-8.6°C 34% 11.0 mph E17.7 kmh E 18.1 mph29.1 kmh 30.25 in1024.4 mb 0.00 in0.0 mm 0.00 in0.0 mm 0.00 in0.0 mm
09:18 PM 43.0°F6.1°C 16.5°F-8.6°C 34% 9.4 mph ESE15.1 kmh ESE 16.1 mph25.9 kmh 30.25 in1024.4 mb 0.00 in0.0 mm 0.00 in0.0 mm 0.00 in0.0 mm
09:15 PM 42.6°F5.9°C 16.2°F-8.8°C 34% 7.8 mph SSE12.6 kmh SSE 15.9 mph25.6 kmh 30.25 in1024.4 mb 0.00 in0.0 mm 0.00 in0.0 mm 0.00 in0.0 mm
09:13 PM 43.0°F6.1°C 16.5°F-8.6°C 34% 6.3 mph ENE10.1 kmh ENE 9.4 mph15.1 kmh 30.25 in1024.4 mb 0.00 in0.0 mm 0.00 in0.0 mm 0.00 in0.0 mm
09:11 PM 42.8°F6.0°C 16.3°F-8.7°C 34% 7.6 mph ENE12.2 kmh ENE 13.4 mph21.6 kmh 30.25 in1024.4 mb 0.00 in0.0 mm 0.00 in0.0 mm 0.00 in0.0 mm
09:09 PM 42.8°F6.0°C 15.6°F-9.1°C 33% 6.7 mph E10.8 kmh E 11.9 mph19.2 kmh 30.25 in1024.4 mb 0.00 in0.0 mm 0.00 in0.0 mm 0.00 in0.0 mm
09:06 PM 43.0°F6.1°C 15.8°F-9.0°C 33% 7.2 mph E11.6 kmh E 11.2 mph18.0 kmh 30.24 in1024.0 mb 0.00 in0.0 mm 0.00 in0.0 mm 0.00 in0.0 mm
09:04 PM 43.0°F6.1°C 15.8°F-9.0°C 33% 8.3 mph E13.4 kmh E 12.3 mph19.8 kmh 30.24 in1024.0 mb 0.00 in0.0 mm 0.00 in0.0 mm 0.00 in0.0 mm
09:02 PM 43.0°F6.1°C 15.8°F-9.0°C 33% 9.2 mph ESE14.8 kmh ESE 16.8 mph27.0 kmh 30.24 in1024.0 mb 0.00 in0.0 mm 0.00 in0.0 mm 0.00 in0.0 mm
09:00 PM 43.0°F6.1°C 15.1°F-9.4°C 32% 7.8 mph NW12.6 kmh NW 15.0 mph24.1 kmh 30.24 in1024.0 mb 0.00 in0.0 mm 0.00 in0.0 mm 0.00 in0.0 mm
08:57 PM 43.0°F6.1°C 15.1°F-9.4°C 32% 7.2 mph E11.6 kmh E 11.0 mph17.7 kmh 30.24 in1024.0 mb 0.00 in0.0 mm 0.00 in0.0 mm 0.00 in0.0 mm
08:55 PM 43.0°F6.1°C 15.1°F-9.4°C 32% 8.9 mph ENE14.3 kmh ENE 14.8 mph23.8 kmh 30.24 in1024.0 mb 0.00 in0.0 mm 0.00 in0.0 mm 0.00 in0.0 mm
08:53 PM 43.0°F6.1°C 14.4°F-9.8°C 31% 6.7 mph NW10.8 kmh NW 10.5 mph16.9 kmh 30.23 in1023.7 mb 0.00 in0.0 mm 0.00 in0.0 mm 0.00 in0.0 mm
08:51 PM 43.0°F6.1°C 14.4°F-9.8°C 31% 6.5 mph NW10.5 kmh NW 15.9 mph25.6 kmh 30.23 in1023.7 mb 0.00 in0.0 mm 0.00 in0.0 mm 0.00 in0.0 mm
08:49 PM 43.2°F6.2°C 14.5°F-9.7°C 31% 6.9 mph NE11.1 kmh NE 6.9 mph11.1 kmh 30.23 in1023.7 mb 0.00 in0.0 mm 0.00 in0.0 mm 0.00 in0.0 mm
08:46 PM 43.2°F6.2°C 14.5°F-9.7°C 31% 9.2 mph E14.8 kmh E 18.6 mph29.9 kmh 30.23 in1023.7 mb 0.00 in0.0 mm 0.00 in0.0 mm 0.00 in0.0 mm
08:44 PM 43.2°F6.2°C 14.5°F-9.7°C 31% 8.1 mph ENE13.0 kmh ENE 18.8 mph30.3 kmh 30.24 in1024.0 mb 0.00 in0.0 mm 0.00 in0.0 mm 0.00 in0.0 mm
08:42 PM 43.2°F6.2°C 14.5°F-9.7°C 31% 7.2 mph NNW11.6 kmh NNW 12.8 mph20.6 kmh 30.23 in1023.7 mb 0.00 in0.0 mm 0.00 in0.0 mm 0.00 in0.0 mm
08:40 PM 43.2°F6.2°C 13.8°F-10.1°C 30% 8.5 mph ENE13.7 kmh ENE 17.4 mph28.0 kmh 30.23 in1023.7 mb 0.00 in0.0 mm 0.00 in0.0 mm 0.00 in0.0 mm
08:37 PM 43.2°F6.2°C 13.8°F-10.1°C 30% 6.5 mph NNE10.5 kmh NNE 13.0 mph20.9 kmh 30.23 in1023.7 mb 0.00 in0.0 mm 0.00 in0.0 mm 0.00 in0.0 mm
08:35 PM 43.2°F6.2°C 13.8°F-10.1°C 30% 6.5 mph NNW10.5 kmh NNW 9.6 mph15.4 kmh 30.22 in1023.4 mb 0.00 in0.0 mm 0.00 in0.0 mm 0.00 in0.0 mm
08:33 PM 43.2°F6.2°C 13.8°F-10.1°C 30% 7.2 mph NNE11.6 kmh NNE 9.6 mph15.4 kmh 30.22 in1023.4 mb 0.00 in0.0 mm 0.00 in0.0 mm 0.00 in0.0 mm
08:31 PM 43.3°F6.3°C 14.0°F-10.0°C 30% 8.9 mph 14.3 kmh 15.9 mph25.6 kmh 30.22 in1023.4 mb 0.00 in0.0 mm 0.00 in0.0 mm 0.00 in0.0 mm
08:28 PM 43.3°F6.3°C 14.0°F-10.0°C 30% 9.6 mph NE15.4 kmh NE 17.4 mph28.0 kmh 30.22 in1023.4 mb 0.00 in0.0 mm 0.00 in0.0 mm 0.00 in0.0 mm
08:26 PM 43.3°F6.3°C 14.0°F-10.0°C 30% 10.7 mph ENE17.2 kmh ENE 16.8 mph27.0 kmh 30.23 in1023.7 mb 0.00 in0.0 mm 0.00 in0.0 mm 0.00 in0.0 mm
08:24 PM 43.5°F6.4°C 14.2°F-9.9°C 30% 9.6 mph NW15.4 kmh NW 10.5 mph16.9 kmh 30.22 in1023.4 mb 0.00 in0.0 mm 0.00 in0.0 mm 0.00 in0.0 mm
08:22 PM 43.5°F6.4°C 14.2°F-9.9°C 30% 13.6 mph ESE21.9 kmh ESE 22.4 mph36.0 kmh 30.23 in1023.7 mb 0.00 in0.0 mm 0.00 in0.0 mm 0.00 in0.0 mm
08:19 PM 43.5°F6.4°C 14.9°F-9.5°C 31% 8.5 mph NE13.7 kmh NE 11.9 mph19.2 kmh 30.23 in1023.7 mb 0.00 in0.0 mm 0.00 in0.0 mm 0.00 in0.0 mm
08:17 PM 43.3°F6.3°C 14.0°F-10.0°C 30% 9.6 mph NNE15.4 kmh NNE 14.8 mph23.8 kmh 30.22 in1023.4 mb 0.00 in0.0 mm 0.00 in0.0 mm 0.00 in0.0 mm
08:15 PM 43.3°F6.3°C 14.7°F-9.6°C 31% 11.6 mph S18.7 kmh S 19.5 mph31.4 kmh 30.22 in1023.4 mb 0.00 in0.0 mm 0.00 in0.0 mm 0.00 in0.0 mm
08:13 PM 43.3°F6.3°C 14.7°F-9.6°C 31% 7.6 mph ESE12.2 kmh ESE 13.6 mph21.9 kmh 30.22 in1023.4 mb 0.00 in0.0 mm 0.00 in0.0 mm 0.00 in0.0 mm
08:10 PM 43.3°F6.3°C 14.7°F-9.6°C 31% 6.5 mph ESE10.5 kmh ESE 8.5 mph13.7 kmh 30.22 in1023.4 mb 0.00 in0.0 mm 0.00 in0.0 mm 0.00 in0.0 mm
08:08 PM 43.3°F6.3°C 14.7°F-9.6°C 31% 6.7 mph 10.8 kmh 12.1 mph19.5 kmh 30.22 in1023.4 mb 0.00 in0.0 mm 0.00 in0.0 mm 0.00 in0.0 mm
08:06 PM 43.3°F6.3°C 14.7°F-9.6°C 31% 6.5 mph NNE10.5 kmh NNE 11.2 mph18.0 kmh 30.22 in1023.4 mb 0.00 in0.0 mm 0.00 in0.0 mm 0.00 in0.0 mm
08:04 PM 43.3°F6.3°C 14.7°F-9.6°C 31% 4.9 mph NE7.9 kmh NE 7.6 mph12.2 kmh 30.22 in1023.4 mb 0.00 in0.0 mm 0.00 in0.0 mm 0.00 in0.0 mm
08:01 PM 43.2°F6.2°C 14.5°F-9.7°C 31% 6.0 mph WNW9.7 kmh WNW 11.0 mph17.7 kmh 30.22 in1023.4 mb 0.00 in0.0 mm 0.00 in0.0 mm 0.00 in0.0 mm
07:59 PM 43.3°F6.3°C 15.4°F-9.2°C 32% 5.4 mph ENE8.7 kmh ENE 9.4 mph15.1 kmh 30.23 in1023.7 mb 0.00 in0.0 mm 0.00 in0.0 mm 0.00 in0.0 mm
07:57 PM 43.3°F6.3°C 15.4°F-9.2°C 32% 5.1 mph NW8.2 kmh NW 7.8 mph12.6 kmh 30.22 in1023.4 mb 0.00 in0.0 mm 0.00 in0.0 mm 0.00 in0.0 mm
07:54 PM 43.3°F6.3°C 15.4°F-9.2°C 32% 5.8 mph NE9.3 kmh NE 15.4 mph24.8 kmh 30.22 in1023.4 mb 0.00 in0.0 mm 0.00 in0.0 mm 0.00 in0.0 mm
07:52 PM 43.3°F6.3°C 15.4°F-9.2°C 32% 4.0 mph E6.4 kmh E 9.6 mph15.4 kmh 30.22 in1023.4 mb 0.00 in0.0 mm 0.00 in0.0 mm 0.00 in0.0 mm
07:50 PM 43.3°F6.3°C 15.4°F-9.2°C 32% 4.3 mph NNE6.9 kmh NNE 8.3 mph13.4 kmh 30.22 in1023.4 mb 0.00 in0.0 mm 0.00 in0.0 mm 0.00 in0.0 mm
07:48 PM 43.3°F6.3°C 15.4°F-9.2°C 32% 4.9 mph NW7.9 kmh NW 10.5 mph16.9 kmh 30.22 in1023.4 mb 0.00 in0.0 mm 0.00 in0.0 mm 0.00 in0.0 mm
07:46 PM 43.3°F6.3°C 15.4°F-9.2°C 32% 5.1 mph ENE8.2 kmh ENE 14.1 mph22.7 kmh 30.23 in1023.7 mb 0.00 in0.0 mm 0.00 in0.0 mm 0.00 in0.0 mm
07:43 PM 43.2°F6.2°C 15.3°F-9.3°C 32% 4.9 mph NNW7.9 kmh NNW 7.2 mph11.6 kmh 30.23 in1023.7 mb 0.00 in0.0 mm 0.00 in0.0 mm 0.00 in0.0 mm
07:41 PM 43.2°F6.2°C 16.0°F-8.9°C 33% 4.7 mph NNE7.6 kmh NNE 11.2 mph18.0 kmh 30.23 in1023.7 mb 0.00 in0.0 mm 0.00 in0.0 mm 0.00 in0.0 mm
07:39 PM 43.0°F6.1°C 16.5°F-8.6°C 34% 4.0 mph E6.4 kmh E 7.4 mph11.9 kmh 30.23 in1023.7 mb 0.00 in0.0 mm 0.00 in0.0 mm 0.00 in0.0 mm
07:37 PM 43.0°F6.1°C 17.2°F-8.2°C 35% 3.6 mph NNE5.8 kmh NNE 8.5 mph13.7 kmh 30.23 in1023.7 mb 0.00 in0.0 mm 0.00 in0.0 mm 0.00 in0.0 mm
07:34 PM 43.2°F6.2°C 18.0°F-7.8°C 36% 4.0 mph NW6.4 kmh NW 6.0 mph9.7 kmh 30.23 in1023.7 mb 0.00 in0.0 mm 0.00 in0.0 mm 0.00 in0.0 mm
07:32 PM 43.2°F6.2°C 17.4°F-8.1°C 35% 4.7 mph 7.6 kmh 6.7 mph10.8 kmh 30.22 in1023.4 mb 0.00 in0.0 mm 0.00 in0.0 mm 0.00 in0.0 mm
07:30 PM 43.3°F6.3°C 17.6°F-8.0°C 35% 5.8 mph E9.3 kmh E 10.7 mph17.2 kmh 30.22 in1023.4 mb 0.00 in0.0 mm 0.00 in0.0 mm 0.00 in0.0 mm
07:28 PM 43.3°F6.3°C 17.6°F-8.0°C 35% 5.4 mph ESE8.7 kmh ESE 10.3 mph16.6 kmh 30.22 in1023.4 mb 0.00 in0.0 mm 0.00 in0.0 mm 0.00 in0.0 mm
07:25 PM 43.5°F6.4°C 17.6°F-8.0°C 35% 5.1 mph ENE8.2 kmh ENE 7.6 mph12.2 kmh 30.23 in1023.7 mb 0.00 in0.0 mm 0.00 in0.0 mm 0.00 in0.0 mm
07:23 PM 43.5°F6.4°C 17.6°F-8.0°C 35% 5.6 mph ESE9.0 kmh ESE 6.7 mph10.8 kmh 30.23 in1023.7 mb 0.00 in0.0 mm 0.00 in0.0 mm 0.00 in0.0 mm
07:21 PM 43.5°F6.4°C 18.3°F-7.6°C 36% 6.9 mph NW11.1 kmh NW 15.9 mph25.6 kmh 30.23 in1023.7 mb 0.00 in0.0 mm 0.00 in0.0 mm 0.00 in0.0 mm
07:19 PM 43.7°F6.5°C 18.5°F-7.5°C 36% 6.9 mph NNW11.1 kmh NNW 7.4 mph11.9 kmh 30.24 in1024.0 mb 0.00 in0.0 mm 0.00 in0.0 mm 0.00 in0.0 mm
07:17 PM 43.7°F6.5°C 18.5°F-7.5°C 36% 8.7 mph SE14.0 kmh SE 11.6 mph18.7 kmh 30.24 in1024.0 mb 0.00 in0.0 mm 0.00 in0.0 mm 0.00 in0.0 mm
07:15 PM 43.7°F6.5°C 18.5°F-7.5°C 36% 8.9 mph NNE14.3 kmh NNE 13.4 mph21.6 kmh 30.25 in1024.4 mb 0.00 in0.0 mm 0.00 in0.0 mm 0.00 in0.0 mm
07:12 PM 43.9°F6.6°C 19.2°F-7.1°C 37% 9.6 mph E15.4 kmh E 12.3 mph19.8 kmh 30.25 in1024.4 mb 0.00 in0.0 mm 0.00 in0.0 mm 0.00 in0.0 mm
07:10 PM 43.9°F6.6°C 19.2°F-7.1°C 37% 10.3 mph SSW16.6 kmh SSW 18.1 mph29.1 kmh 30.25 in1024.4 mb 0.00 in0.0 mm 0.00 in0.0 mm 0.00 in0.0 mm
07:08 PM 43.9°F6.6°C 19.2°F-7.1°C 37% 8.3 mph WNW13.4 kmh WNW 18.1 mph29.1 kmh 30.25 in1024.4 mb 0.00 in0.0 mm 0.00 in0.0 mm 0.00 in0.0 mm
07:06 PM 43.9°F6.6°C 19.2°F-7.1°C 37% 8.3 mph E13.4 kmh E 16.6 mph26.7 kmh 30.24 in1024.0 mb 0.00 in0.0 mm 0.00 in0.0 mm 0.00 in0.0 mm
07:03 PM 44.1°F6.7°C 19.4°F-7.0°C 37% 8.1 mph SSW13.0 kmh SSW 19.5 mph31.4 kmh 30.24 in1024.0 mb 0.00 in0.0 mm 0.00 in0.0 mm 0.00 in0.0 mm
07:01 PM 44.1°F6.7°C 19.4°F-7.0°C 37% 8.7 mph E14.0 kmh E 17.0 mph27.4 kmh 30.24 in1024.0 mb 0.00 in0.0 mm 0.00 in0.0 mm 0.00 in0.0 mm
06:59 PM 44.1°F6.7°C 19.4°F-7.0°C 37% 7.4 mph NW11.9 kmh NW 13.4 mph21.6 kmh 30.25 in1024.4 mb 0.00 in0.0 mm 0.00 in0.0 mm 0.00 in0.0 mm
06:57 PM 44.2°F6.8°C 19.6°F-6.9°C 37% 7.4 mph NE11.9 kmh NE 17.4 mph28.0 kmh 30.25 in1024.4 mb 0.00 in0.0 mm 0.00 in0.0 mm 0.00 in0.0 mm
06:54 PM 44.2°F6.8°C 19.6°F-6.9°C 37% 6.7 mph W10.8 kmh W 8.5 mph13.7 kmh 30.25 in1024.4 mb 0.00 in0.0 mm 0.00 in0.0 mm 0.00 in0.0 mm
06:52 PM 44.4°F6.9°C 19.8°F-6.8°C 37% 8.3 mph NNE13.4 kmh NNE 18.1 mph29.1 kmh 30.25 in1024.4 mb 0.00 in0.0 mm 0.00 in0.0 mm 0.00 in0.0 mm
06:50 PM 44.4°F6.9°C 19.8°F-6.8°C 37% 8.1 mph NE13.0 kmh NE 10.7 mph17.2 kmh 30.25 in1024.4 mb 0.00 in0.0 mm 0.00 in0.0 mm 0.00 in0.0 mm
06:47 PM 44.4°F6.9°C 19.8°F-6.8°C 37% 9.6 mph E15.4 kmh E 14.5 mph23.3 kmh 30.25 in1024.4 mb 0.00 in0.0 mm 0.00 in0.0 mm 0.00 in0.0 mm
06:45 PM 44.4°F6.9°C 19.0°F-7.2°C 36% 8.7 mph SE14.0 kmh SE 14.1 mph22.7 kmh 30.25 in1024.4 mb 0.00 in0.0 mm 0.00 in0.0 mm 0.00 in0.0 mm
06:43 PM 44.4°F6.9°C 19.8°F-6.8°C 37% 8.3 mph ESE13.4 kmh ESE 12.8 mph20.6 kmh 30.25 in1024.4 mb 0.00 in0.0 mm 0.00 in0.0 mm 0.00 in0.0 mm
06:41 PM 44.6°F7.0°C 19.2°F-7.1°C 36% 9.6 mph NE15.4 kmh NE 15.9 mph25.6 kmh 30.25 in1024.4 mb 0.00 in0.0 mm 0.00 in0.0 mm 0.00 in0.0 mm
06:39 PM 44.6°F7.0°C 19.2°F-7.1°C 36% 9.4 mph NE15.1 kmh NE 18.6 mph29.9 kmh 30.25 in1024.4 mb 0.00 in0.0 mm 0.00 in0.0 mm 0.00 in0.0 mm
06:37 PM 44.6°F7.0°C 19.9°F-6.7°C 37% 8.3 mph E13.4 kmh E 12.8 mph20.6 kmh 30.25 in1024.4 mb 0.00 in0.0 mm 0.00 in0.0 mm 0.00 in0.0 mm
06:34 PM 44.8°F7.1°C 20.1°F-6.6°C 37% 8.3 mph E13.4 kmh E 17.2 mph27.7 kmh 30.24 in1024.0 mb 0.00 in0.0 mm 0.00 in0.0 mm 0.00 in0.0 mm
06:32 PM 44.6°F7.0°C 19.9°F-6.7°C 37% 6.5 mph E10.5 kmh E 17.2 mph27.7 kmh 30.25 in1024.4 mb 0.00 in0.0 mm 0.00 in0.0 mm 0.00 in0.0 mm
06:30 PM 44.6°F7.0°C 20.5°F-6.4°C 38% 5.4 mph E8.7 kmh E 10.3 mph16.6 kmh 30.24 in1024.0 mb 0.00 in0.0 mm 0.00 in0.0 mm 0.00 in0.0 mm
06:28 PM 44.6°F7.0°C 21.2°F-6.0°C 39% 4.5 mph ESE7.2 kmh ESE 8.9 mph14.3 kmh 30.25 in1024.4 mb 0.00 in0.0 mm 0.00 in0.0 mm 0.00 in0.0 mm
06:25 PM 44.6°F7.0°C 21.7°F-5.7°C 40% 4.3 mph NE6.9 kmh NE 8.9 mph14.3 kmh 30.24 in1024.0 mb 0.00 in0.0 mm 0.00 in0.0 mm 0.00 in0.0 mm
06:23 PM 44.6°F7.0°C 22.3°F-5.4°C 41% 4.7 mph NNW7.6 kmh NNW 7.6 mph12.2 kmh 30.24 in1024.0 mb 0.00 in0.0 mm 0.00 in0.0 mm 0.00 in0.0 mm
06:21 PM 44.6°F7.0°C 22.3°F-5.4°C 41% 5.4 mph SE8.7 kmh SE 13.0 mph20.9 kmh 30.24 in1024.0 mb 0.00 in0.0 mm 0.00 in0.0 mm 0.00 in0.0 mm
06:19 PM 44.6°F7.0°C 22.3°F-5.4°C 41% 5.1 mph NNE8.2 kmh NNE 4.9 mph7.9 kmh 30.24 in1024.0 mb 0.00 in0.0 mm 0.00 in0.0 mm 0.00 in0.0 mm
06:17 PM 44.6°F7.0°C 22.3°F-5.4°C 41% 7.4 mph NNE11.9 kmh NNE 13.4 mph21.6 kmh 30.24 in1024.0 mb 0.00 in0.0 mm 0.00 in0.0 mm 0.00 in0.0 mm
06:15 PM 44.8°F7.1°C 23.0°F-5.0°C 42% 6.9 mph ENE11.1 kmh ENE 7.6 mph12.2 kmh 30.23 in1023.7 mb 0.00 in0.0 mm 0.00 in0.0 mm 0.00 in0.0 mm
06:12 PM 44.8°F7.1°C 23.0°F-5.0°C 42% 9.2 mph E14.8 kmh E 17.9 mph28.8 kmh 30.23 in1023.7 mb 0.00 in0.0 mm 0.00 in0.0 mm 0.00 in0.0 mm
06:10 PM 44.8°F7.1°C 23.0°F-5.0°C 42% 10.7 mph 17.2 kmh 18.8 mph30.3 kmh 30.23 in1023.7 mb 0.00 in0.0 mm 0.00 in0.0 mm 0.00 in0.0 mm
06:08 PM 45.0°F7.2°C 23.2°F-4.9°C 42% 10.7 mph ESE17.2 kmh ESE 22.4 mph36.0 kmh 30.24 in1024.0 mb 0.00 in0.0 mm 0.00 in0.0 mm 0.00 in0.0 mm
06:06 PM 44.8°F7.1°C 24.3°F-4.3°C 44% 6.9 mph 11.1 kmh 16.6 mph26.7 kmh 30.24 in1024.0 mb 0.00 in0.0 mm 0.00 in0.0 mm 0.00 in0.0 mm
06:04 PM 45.0°F7.2°C 24.4°F-4.2°C 44% 6.3 mph 10.1 kmh 8.1 mph13.0 kmh 30.24 in1024.0 mb 0.00 in0.0 mm 0.00 in0.0 mm 0.00 in0.0 mm
06:01 PM 45.0°F7.2°C 24.4°F-4.2°C 44% 7.8 mph NNE12.6 kmh NNE 10.5 mph16.9 kmh 30.24 in1024.0 mb 0.00 in0.0 mm 0.00 in0.0 mm 0.00 in0.0 mm
05:59 PM 45.0°F7.2°C 25.0°F-3.9°C 45% 6.9 mph E11.1 kmh E 11.2 mph18.0 kmh 30.24 in1024.0 mb 0.00 in0.0 mm 0.00 in0.0 mm 0.00 in0.0 mm
05:57 PM 45.1°F7.3°C 25.0°F-3.9°C 45% 5.4 mph NE8.7 kmh NE 10.7 mph17.2 kmh 30.23 in1023.7 mb 0.00 in0.0 mm 0.00 in0.0 mm 0.00 in0.0 mm
05:55 PM 45.1°F7.3°C 25.0°F-3.9°C 45% 5.8 mph NNE9.3 kmh NNE 6.5 mph10.5 kmh 30.24 in1024.0 mb 0.00 in0.0 mm 0.00 in0.0 mm 0.00 in0.0 mm
05:52 PM 45.1°F7.3°C 24.4°F-4.2°C 44% 7.2 mph ENE11.6 kmh ENE 10.7 mph17.2 kmh 30.24 in1024.0 mb 0.00 in0.0 mm 0.00 in0.0 mm 0.00 in0.0 mm
05:50 PM 45.3°F7.4°C 24.6°F-4.1°C 44% 8.3 mph NE13.4 kmh NE 16.6 mph26.7 kmh 30.24 in1024.0 mb 0.00 in0.0 mm 0.00 in0.0 mm 0.00 in0.0 mm
05:48 PM 45.3°F7.4°C 24.6°F-4.1°C 44% 6.3 mph NW10.1 kmh NW 12.8 mph20.6 kmh 30.23 in1023.7 mb 0.00 in0.0 mm 0.00 in0.0 mm 0.00 in0.0 mm
05:46 PM 45.5°F7.5°C 24.8°F-4.0°C 44% 5.6 mph SE9.0 kmh SE 7.4 mph11.9 kmh 30.23 in1023.7 mb 0.00 in0.0 mm 0.00 in0.0 mm 0.00 in0.0 mm
05:44 PM 45.5°F7.5°C 24.8°F-4.0°C 44% 6.7 mph NNW10.8 kmh NNW 11.4 mph18.3 kmh 30.24 in1024.0 mb 0.00 in0.0 mm 0.00 in0.0 mm 0.00 in0.0 mm
05:42 PM 45.7°F7.6°C 24.4°F-4.2°C 43% 6.0 mph 9.7 kmh 13.6 mph21.9 kmh 30.24 in1024.0 mb 0.00 in0.0 mm 0.00 in0.0 mm 0.00 in0.0 mm
05:40 PM 45.7°F7.6°C 24.4°F-4.2°C 43% 6.7 mph NW10.8 kmh NW 11.9 mph19.2 kmh 30.23 in1023.7 mb 0.00 in0.0 mm 0.00 in0.0 mm 0.00 in0.0 mm
05:37 PM 46.0°F7.8°C 24.3°F-4.3°C 42% 5.1 mph 8.2 kmh 8.3 mph13.4 kmh 30.24 in1024.0 mb 0.00 in0.0 mm 0.00 in0.0 mm 0.00 in0.0 mm
05:35 PM 46.0°F7.8°C 24.3°F-4.3°C 42% 5.4 mph ENE8.7 kmh ENE 9.8 mph15.8 kmh 30.24 in1024.0 mb 0.00 in0.0 mm 0.00 in0.0 mm 0.00 in0.0 mm
05:33 PM 46.0°F7.8°C 23.7°F-4.6°C 41% 4.7 mph NE7.6 kmh NE 10.3 mph16.6 kmh 30.25 in1024.4 mb 0.00 in0.0 mm 0.00 in0.0 mm 0.00 in0.0 mm
05:31 PM 46.2°F7.9°C 23.9°F-4.5°C 41% 4.0 mph ENE6.4 kmh ENE 6.3 mph10.1 kmh 30.25 in1024.4 mb 0.00 in0.0 mm 0.00 in0.0 mm 0.00 in0.0 mm
05:29 PM 46.2°F7.9°C 23.2°F-4.9°C 40% 5.4 mph E8.7 kmh E 7.2 mph11.6 kmh 30.25 in1024.4 mb 0.00 in0.0 mm 0.00 in0.0 mm 0.00 in0.0 mm
05:27 PM 46.2°F7.9°C 23.2°F-4.9°C 40% 5.6 mph ENE9.0 kmh ENE 10.3 mph16.6 kmh 30.25 in1024.4 mb 0.00 in0.0 mm 0.00 in0.0 mm 0.00 in0.0 mm
05:25 PM 46.2°F7.9°C 23.2°F-4.9°C 40% 6.0 mph 9.7 kmh 12.8 mph20.6 kmh 30.25 in1024.4 mb 0.00 in0.0 mm 0.00 in0.0 mm 0.00 in0.0 mm
05:23 PM 46.2°F7.9°C 22.6°F-5.2°C 39% 4.9 mph NNE7.9 kmh NNE 4.7 mph7.6 kmh 30.24 in1024.0 mb 0.00 in0.0 mm 0.00 in0.0 mm 0.00 in0.0 mm
05:20 PM 46.2°F7.9°C 22.6°F-5.2°C 39% 7.2 mph ENE11.6 kmh ENE 8.5 mph13.7 kmh 30.24 in1024.0 mb 0.00 in0.0 mm 0.00 in0.0 mm 0.00 in0.0 mm
05:18 PM 46.2°F7.9°C 21.9°F-5.6°C 38% 8.3 mph W13.4 kmh W 13.0 mph20.9 kmh 30.24 in1024.0 mb 0.00 in0.0 mm 0.00 in0.0 mm 0.00 in0.0 mm
05:16 PM 46.2°F7.9°C 21.9°F-5.6°C 38% 9.6 mph ENE15.4 kmh ENE 12.3 mph19.8 kmh 30.24 in1024.0 mb 0.00 in0.0 mm 0.00 in0.0 mm 0.00 in0.0 mm
05:14 PM 46.4°F8.0°C 22.1°F-5.5°C 38% 8.9 mph ENE14.3 kmh ENE 14.8 mph23.8 kmh 30.24 in1024.0 mb 0.00 in0.0 mm 0.00 in0.0 mm 0.00 in0.0 mm
05:11 PM 46.2°F7.9°C 21.4°F-5.9°C 37% 8.9 mph W14.3 kmh W 18.1 mph29.1 kmh 30.23 in1023.7 mb 0.00 in0.0 mm 0.00 in0.0 mm 0.00 in0.0 mm
05:09 PM 46.4°F8.0°C 21.6°F-5.8°C 37% 9.8 mph ESE15.8 kmh ESE 16.1 mph25.9 kmh 30.24 in1024.0 mb 0.00 in0.0 mm 0.00 in0.0 mm 0.00 in0.0 mm
05:07 PM 46.2°F7.9°C 21.4°F-5.9°C 37% 8.7 mph SSW14.0 kmh SSW 14.1 mph22.7 kmh 30.24 in1024.0 mb 0.00 in0.0 mm 0.00 in0.0 mm 0.00 in0.0 mm
05:05 PM 46.4°F8.0°C 20.8°F-6.2°C 36% 9.2 mph S14.8 kmh S 24.4 mph39.3 kmh 30.24 in1024.0 mb 0.00 in0.0 mm 0.00 in0.0 mm 0.00 in0.0 mm
05:03 PM 46.6°F8.1°C 21.0°F-6.1°C 36% 7.8 mph 12.6 kmh 11.9 mph19.2 kmh 30.24 in1024.0 mb 0.00 in0.0 mm 0.00 in0.0 mm 0.00 in0.0 mm
05:01 PM 46.6°F8.1°C 21.0°F-6.1°C 36% 8.7 mph NNW14.0 kmh NNW 10.7 mph17.2 kmh 30.24 in1024.0 mb 0.00 in0.0 mm 0.00 in0.0 mm 0.00 in0.0 mm
04:59 PM 46.8°F8.2°C 20.5°F-6.4°C 35% 10.1 mph ENE16.3 kmh ENE 16.6 mph26.7 kmh 30.23 in1023.7 mb 0.00 in0.0 mm 0.00 in0.0 mm 0.00 in0.0 mm
04:57 PM 46.8°F8.2°C 20.5°F-6.4°C 35% 8.5 mph SE13.7 kmh SE 12.8 mph20.6 kmh 30.24 in1024.0 mb 0.00 in0.0 mm 0.00 in0.0 mm 0.00 in0.0 mm
04:54 PM 46.9°F8.3°C 19.9°F-6.7°C 34% 7.8 mph ESE12.6 kmh ESE 14.5 mph23.3 kmh 30.23 in1023.7 mb 0.00 in0.0 mm 0.00 in0.0 mm 0.00 in0.0 mm
04:52 PM 46.9°F8.3°C 19.9°F-6.7°C 34% 8.5 mph NE13.7 kmh NE 14.5 mph23.3 kmh 30.24 in1024.0 mb 0.00 in0.0 mm 0.00 in0.0 mm 0.00 in0.0 mm
04:50 PM 46.8°F8.2°C 19.9°F-6.7°C 34% 7.6 mph ENE12.2 kmh ENE 10.7 mph17.2 kmh 30.24 in1024.0 mb 0.00 in0.0 mm 0.00 in0.0 mm 0.00 in0.0 mm
04:48 PM 46.8°F8.2°C 19.2°F-7.1°C 33% 8.5 mph ENE13.7 kmh ENE 18.3 mph29.5 kmh 30.24 in1024.0 mb 0.00 in0.0 mm 0.00 in0.0 mm 0.00 in0.0 mm
04:45 PM 46.9°F8.3°C 19.9°F-6.7°C 34% 7.4 mph NNE11.9 kmh NNE 15.7 mph25.3 kmh 30.24 in1024.0 mb 0.00 in0.0 mm 0.00 in0.0 mm 0.00 in0.0 mm
04:43 PM 47.1°F8.4°C 20.8°F-6.2°C 35% 7.8 mph 12.6 kmh 11.6 mph18.7 kmh 30.24 in1024.0 mb 0.00 in0.0 mm 0.00 in0.0 mm 0.00 in0.0 mm
04:41 PM 47.1°F8.4°C 20.8°F-6.2°C 35% 8.7 mph ENE14.0 kmh ENE 19.0 mph30.6 kmh 30.24 in1024.0 mb 0.00 in0.0 mm 0.00 in0.0 mm 0.00 in0.0 mm
04:39 PM 46.9°F8.3°C 20.7°F-6.3°C 35% 8.1 mph NE13.0 kmh NE 7.4 mph11.9 kmh 30.24 in1024.0 mb 0.00 in0.0 mm 0.00 in0.0 mm 0.00 in0.0 mm
04:37 PM 47.1°F8.4°C 20.8°F-6.2°C 35% 11.6 mph E18.7 kmh E 17.2 mph27.7 kmh 30.24 in1024.0 mb 0.00 in0.0 mm 0.00 in0.0 mm 0.00 in0.0 mm
04:35 PM 47.1°F8.4°C 20.1°F-6.6°C 34% 10.5 mph E16.9 kmh E 19.7 mph31.7 kmh 30.24 in1024.0 mb 0.00 in0.0 mm 0.00 in0.0 mm 0.00 in0.0 mm
04:32 PM 47.3°F8.5°C 21.0°F-6.1°C 35% 8.5 mph SSE13.7 kmh SSE 15.0 mph24.1 kmh 30.24 in1024.0 mb 0.00 in0.0 mm 0.00 in0.0 mm 0.00 in0.0 mm
04:30 PM 47.3°F8.5°C 21.0°F-6.1°C 35% 7.4 mph WSW11.9 kmh WSW 12.8 mph20.6 kmh 30.24 in1024.0 mb 0.00 in0.0 mm 0.00 in0.0 mm 0.00 in0.0 mm
04:28 PM 47.5°F8.6°C 21.2°F-6.0°C 35% 7.6 mph SSE12.2 kmh SSE 11.9 mph19.2 kmh 30.24 in1024.0 mb 0.00 in0.0 mm 0.00 in0.0 mm 0.00 in0.0 mm
04:26 PM 47.5°F8.6°C 21.2°F-6.0°C 35% 7.4 mph 11.9 kmh 7.2 mph11.6 kmh 30.24 in1024.0 mb 0.00 in0.0 mm 0.00 in0.0 mm 0.00 in0.0 mm
04:24 PM 47.3°F8.5°C 21.0°F-6.1°C 35% 10.3 mph NNE16.6 kmh NNE 29.3 mph47.2 kmh 30.24 in1024.0 mb 0.00 in0.0 mm 0.00 in0.0 mm 0.00 in0.0 mm
04:22 PM 47.5°F8.6°C 21.2°F-6.0°C 35% 8.1 mph ESE13.0 kmh ESE 14.5 mph23.3 kmh 30.24 in1024.0 mb 0.00 in0.0 mm 0.00 in0.0 mm 0.00 in0.0 mm
04:20 PM 47.5°F8.6°C 21.9°F-5.6°C 36% 6.9 mph ESE11.1 kmh ESE 10.1 mph16.3 kmh 30.24 in1024.0 mb 0.00 in0.0 mm 0.00 in0.0 mm 0.00 in0.0 mm
04:18 PM 47.5°F8.6°C 21.2°F-6.0°C 35% 7.4 mph NNW11.9 kmh NNW 6.0 mph9.7 kmh 30.23 in1023.7 mb 0.00 in0.0 mm 0.00 in0.0 mm 0.00 in0.0 mm
04:15 PM 47.3°F8.5°C 21.0°F-6.1°C 35% 10.7 mph SSE17.2 kmh SSE 18.3 mph29.5 kmh 30.23 in1023.7 mb 0.00 in0.0 mm 0.00 in0.0 mm 0.00 in0.0 mm
04:13 PM 47.3°F8.5°C 21.0°F-6.1°C 35% 11.6 mph NNE18.7 kmh NNE 18.1 mph29.1 kmh 30.23 in1023.7 mb 0.00 in0.0 mm 0.00 in0.0 mm 0.00 in0.0 mm
04:11 PM 47.5°F8.6°C 21.2°F-6.0°C 35% 12.1 mph S19.5 kmh S 17.2 mph27.7 kmh 30.23 in1023.7 mb 0.00 in0.0 mm 0.00 in0.0 mm 0.00 in0.0 mm
04:09 PM 47.5°F8.6°C 21.2°F-6.0°C 35% 14.8 mph 23.8 kmh 32.7 mph52.6 kmh 30.23 in1023.7 mb 0.00 in0.0 mm 0.00 in0.0 mm 0.00 in0.0 mm
04:06 PM 47.5°F8.6°C 21.9°F-5.6°C 36% 11.0 mph NE17.7 kmh NE 17.7 mph28.5 kmh 30.22 in1023.4 mb 0.00 in0.0 mm 0.00 in0.0 mm 0.00 in0.0 mm
04:04 PM 47.5°F8.6°C 21.9°F-5.6°C 36% 11.0 mph NE17.7 kmh NE 17.9 mph28.8 kmh 30.22 in1023.4 mb 0.00 in0.0 mm 0.00 in0.0 mm 0.00 in0.0 mm
04:02 PM 47.5°F8.6°C 21.2°F-6.0°C 35% 10.5 mph ESE16.9 kmh ESE 14.3 mph23.0 kmh 30.23 in1023.7 mb 0.00 in0.0 mm 0.00 in0.0 mm 0.00 in0.0 mm
04:00 PM 47.5°F8.6°C 21.2°F-6.0°C 35% 11.2 mph NNE18.0 kmh NNE 21.5 mph34.6 kmh 30.22 in1023.4 mb 0.00 in0.0 mm 0.00 in0.0 mm 0.00 in0.0 mm
03:58 PM 47.8°F8.8°C 20.8°F-6.2°C 34% 13.0 mph ENE20.9 kmh ENE 24.4 mph39.3 kmh 30.22 in1023.4 mb 0.00 in0.0 mm 0.00 in0.0 mm 0.00 in0.0 mm
03:53 PM 48.0°F8.9°C 21.7°F-5.7°C 35% 10.3 mph E16.6 kmh E 13.0 mph20.9 kmh 30.23 in1023.7 mb 0.00 in0.0 mm 0.00 in0.0 mm 0.00 in0.0 mm
03:51 PM 48.0°F8.9°C 21.0°F-6.1°C 34% 10.5 mph NW16.9 kmh NW 15.2 mph24.5 kmh 30.22 in1023.4 mb 0.00 in0.0 mm 0.00 in0.0 mm 0.00 in0.0 mm
03:49 PM 48.0°F8.9°C 21.7°F-5.7°C 35% 11.4 mph E18.3 kmh E 26.4 mph42.5 kmh 30.22 in1023.4 mb 0.00 in0.0 mm 0.00 in0.0 mm 0.00 in0.0 mm
03:47 PM 48.0°F8.9°C 21.7°F-5.7°C 35% 9.8 mph SE15.8 kmh SE 17.4 mph28.0 kmh 30.23 in1023.7 mb 0.00 in0.0 mm 0.00 in0.0 mm 0.00 in0.0 mm
03:44 PM 48.2°F9.0°C 20.5°F-6.4°C 33% 9.6 mph ENE15.4 kmh ENE 13.0 mph20.9 kmh 30.23 in1023.7 mb 0.00 in0.0 mm 0.00 in0.0 mm 0.00 in0.0 mm
03:42 PM 48.0°F8.9°C 20.3°F-6.5°C 33% 11.9 mph NW19.2 kmh NW 26.2 mph42.2 kmh 30.22 in1023.4 mb 0.00 in0.0 mm 0.00 in0.0 mm 0.00 in0.0 mm
03:40 PM 48.0°F8.9°C 20.3°F-6.5°C 33% 13.0 mph ENE20.9 kmh ENE 23.0 mph37.0 kmh 30.23 in1023.7 mb 0.00 in0.0 mm 0.00 in0.0 mm 0.00 in0.0 mm
03:38 PM 48.0°F8.9°C 20.3°F-6.5°C 33% 13.2 mph NE21.2 kmh NE 21.5 mph34.6 kmh 30.23 in1023.7 mb 0.00 in0.0 mm 0.00 in0.0 mm 0.00 in0.0 mm
03:35 PM 48.0°F8.9°C 20.3°F-6.5°C 33% 14.1 mph NE22.7 kmh NE 22.4 mph36.0 kmh 30.23 in1023.7 mb 0.00 in0.0 mm 0.00 in0.0 mm 0.00 in0.0 mm
03:33 PM 48.0°F8.9°C 20.3°F-6.5°C 33% 14.3 mph E23.0 kmh E 22.8 mph36.7 kmh 30.22 in1023.4 mb 0.00 in0.0 mm 0.00 in0.0 mm 0.00 in0.0 mm
03:31 PM 48.4°F9.1°C 21.4°F-5.9°C 34% 11.0 mph ESE17.7 kmh ESE 22.8 mph36.7 kmh 30.22 in1023.4 mb 0.00 in0.0 mm 0.00 in0.0 mm 0.00 in0.0 mm
03:28 PM 48.4°F9.1°C 20.7°F-6.3°C 33% 8.9 mph E14.3 kmh E 16.8 mph27.0 kmh 30.22 in1023.4 mb 0.00 in0.0 mm 0.00 in0.0 mm 0.00 in0.0 mm
03:26 PM 48.6°F9.2°C 21.4°F-5.9°C 34% 7.6 mph SSE12.2 kmh SSE 11.0 mph17.7 kmh 30.23 in1023.7 mb 0.00 in0.0 mm 0.00 in0.0 mm 0.00 in0.0 mm
03:24 PM 48.4°F9.1°C 20.7°F-6.3°C 33% 8.1 mph NW13.0 kmh NW 8.9 mph14.3 kmh 30.23 in1023.7 mb 0.00 in0.0 mm 0.00 in0.0 mm 0.00 in0.0 mm
03:22 PM 48.4°F9.1°C 20.7°F-6.3°C 33% 10.5 mph ENE16.9 kmh ENE 16.3 mph26.2 kmh 30.23 in1023.7 mb 0.00 in0.0 mm 0.00 in0.0 mm 0.00 in0.0 mm
03:19 PM 48.2°F9.0°C 20.5°F-6.4°C 33% 12.5 mph ESE20.1 kmh ESE 13.0 mph20.9 kmh 30.23 in1023.7 mb 0.00 in0.0 mm 0.00 in0.0 mm 0.00 in0.0 mm
03:17 PM 48.2°F9.0°C 19.0°F-7.2°C 31% 15.7 mph ENE25.3 kmh ENE 21.7 mph34.9 kmh 30.23 in1023.7 mb 0.00 in0.0 mm 0.00 in0.0 mm 0.00 in0.0 mm
03:15 PM 48.4°F9.1°C 19.9°F-6.7°C 32% 16.8 mph ESE27.0 kmh ESE 25.3 mph40.7 kmh 30.23 in1023.7 mb 0.00 in0.0 mm 0.00 in0.0 mm 0.00 in0.0 mm
03:13 PM 48.4°F9.1°C 19.9°F-6.7°C 32% 12.5 mph ENE20.1 kmh ENE 22.4 mph36.0 kmh 30.23 in1023.7 mb 0.00 in0.0 mm 0.00 in0.0 mm 0.00 in0.0 mm
03:11 PM 48.4°F9.1°C 20.7°F-6.3°C 33% 11.6 mph NNW18.7 kmh NNW 13.0 mph20.9 kmh 30.22 in1023.4 mb 0.00 in0.0 mm 0.00 in0.0 mm 0.00 in0.0 mm
03:09 PM 48.4°F9.1°C 19.9°F-6.7°C 32% 11.6 mph E18.7 kmh E 17.7 mph28.5 kmh 30.23 in1023.7 mb 0.00 in0.0 mm 0.00 in0.0 mm 0.00 in0.0 mm
03:06 PM 48.4°F9.1°C 19.9°F-6.7°C 32% 12.3 mph NW19.8 kmh NW 15.0 mph24.1 kmh 30.23 in1023.7 mb 0.00 in0.0 mm 0.00 in0.0 mm 0.00 in0.0 mm
03:04 PM 48.6°F9.2°C 19.2°F-7.1°C 31% 13.9 mph SE22.4 kmh SE 22.4 mph36.0 kmh 30.23 in1023.7 mb 0.00 in0.0 mm 0.00 in0.0 mm 0.00 in0.0 mm
03:02 PM 48.6°F9.2°C 19.9°F-6.7°C 32% 13.2 mph NE21.2 kmh NE 20.4 mph32.8 kmh 30.23 in1023.7 mb 0.00 in0.0 mm 0.00 in0.0 mm 0.00 in0.0 mm
03:00 PM 48.6°F9.2°C 19.2°F-7.1°C 31% 13.0 mph ENE20.9 kmh ENE 20.1 mph32.3 kmh 30.23 in1023.7 mb 0.00 in0.0 mm 0.00 in0.0 mm 0.00 in0.0 mm
02:58 PM 48.6°F9.2°C 19.2°F-7.1°C 31% 14.1 mph NNE22.7 kmh NNE 18.3 mph29.5 kmh 30.24 in1024.0 mb 0.00 in0.0 mm 0.00 in0.0 mm 0.00 in0.0 mm
02:55 PM 48.7°F9.3°C 18.7°F-7.4°C 30% 14.3 mph E23.0 kmh E 23.3 mph37.5 kmh 30.23 in1023.7 mb 0.00 in0.0 mm 0.00 in0.0 mm 0.00 in0.0 mm
02:53 PM 48.9°F9.4°C 19.6°F-6.9°C 31% 13.4 mph S21.6 kmh S 21.9 mph35.2 kmh 30.24 in1024.0 mb 0.00 in0.0 mm 0.00 in0.0 mm 0.00 in0.0 mm
02:51 PM 48.7°F9.3°C 19.4°F-7.0°C 31% 11.6 mph ENE18.7 kmh ENE 13.2 mph21.2 kmh 30.23 in1023.7 mb 0.00 in0.0 mm 0.00 in0.0 mm 0.00 in0.0 mm
02:49 PM 48.9°F9.4°C 18.9°F-7.3°C 30% 13.4 mph 21.6 kmh 20.1 mph32.3 kmh 30.23 in1023.7 mb 0.00 in0.0 mm 0.00 in0.0 mm 0.00 in0.0 mm
02:46 PM 48.9°F9.4°C 18.0°F-7.8°C 29% 13.0 mph NE20.9 kmh NE 16.1 mph25.9 kmh 30.23 in1023.7 mb 0.00 in0.0 mm 0.00 in0.0 mm 0.00 in0.0 mm
02:44 PM 49.1°F9.5°C 19.8°F-6.8°C 31% 13.6 mph ENE21.9 kmh ENE 25.9 mph41.7 kmh 30.23 in1023.7 mb 0.00 in0.0 mm 0.00 in0.0 mm 0.00 in0.0 mm
02:42 PM 48.9°F9.4°C 18.9°F-7.3°C 30% 12.8 mph E20.6 kmh E 15.9 mph25.6 kmh 30.23 in1023.7 mb 0.00 in0.0 mm 0.00 in0.0 mm 0.00 in0.0 mm
02:40 PM 48.7°F9.3°C 18.0°F-7.8°C 29% 15.9 mph SE25.6 kmh SE 21.7 mph34.9 kmh 30.23 in1023.7 mb 0.00 in0.0 mm 0.00 in0.0 mm 0.00 in0.0 mm
02:38 PM 48.9°F9.4°C 18.0°F-7.8°C 29% 16.1 mph ENE25.9 kmh ENE 37.4 mph60.2 kmh 30.24 in1024.0 mb 0.00 in0.0 mm 0.00 in0.0 mm 0.00 in0.0 mm
02:35 PM 49.1°F9.5°C 19.0°F-7.2°C 30% 11.4 mph NE18.3 kmh NE 20.6 mph33.2 kmh 30.23 in1023.7 mb 0.00 in0.0 mm 0.00 in0.0 mm 0.00 in0.0 mm
02:33 PM 49.1°F9.5°C 18.1°F-7.7°C 29% 11.2 mph E18.0 kmh E 21.3 mph34.3 kmh 30.23 in1023.7 mb 0.00 in0.0 mm 0.00 in0.0 mm 0.00 in0.0 mm
02:31 PM 49.3°F9.6°C 17.6°F-8.0°C 28% 10.1 mph E16.3 kmh E 16.6 mph26.7 kmh 30.23 in1023.7 mb 0.00 in0.0 mm 0.00 in0.0 mm 0.00 in0.0 mm
02:28 PM 49.1°F9.5°C 18.1°F-7.7°C 29% 10.3 mph ENE16.6 kmh ENE 15.2 mph24.5 kmh 30.23 in1023.7 mb 0.00 in0.0 mm 0.00 in0.0 mm 0.00 in0.0 mm
02:26 PM 48.9°F9.4°C 18.0°F-7.8°C 29% 10.5 mph 16.9 kmh 15.4 mph24.8 kmh 30.24 in1024.0 mb 0.00 in0.0 mm 0.00 in0.0 mm 0.00 in0.0 mm
02:24 PM 48.9°F9.4°C 18.0°F-7.8°C 29% 13.0 mph ESE20.9 kmh ESE 20.8 mph33.5 kmh 30.24 in1024.0 mb 0.00 in0.0 mm 0.00 in0.0 mm 0.00 in0.0 mm
02:22 PM 48.9°F9.4°C 18.0°F-7.8°C 29% 12.5 mph E20.1 kmh E 20.8 mph33.5 kmh 30.24 in1024.0 mb 0.00 in0.0 mm 0.00 in0.0 mm 0.00 in0.0 mm
02:20 PM 48.7°F9.3°C 18.0°F-7.8°C 29% 12.1 mph ENE19.5 kmh ENE 18.8 mph30.3 kmh 30.24 in1024.0 mb 0.00 in0.0 mm 0.00 in0.0 mm 0.00 in0.0 mm
02:18 PM 48.7°F9.3°C 18.0°F-7.8°C 29% 13.4 mph ESE21.6 kmh ESE 21.3 mph34.3 kmh 30.24 in1024.0 mb 0.00 in0.0 mm 0.00 in0.0 mm 0.00 in0.0 mm
02:15 PM 48.7°F9.3°C 17.1°F-8.3°C 28% 12.5 mph E20.1 kmh E 20.6 mph33.2 kmh 30.24 in1024.0 mb 0.00 in0.0 mm 0.00 in0.0 mm 0.00 in0.0 mm
02:13 PM 48.9°F9.4°C 18.0°F-7.8°C 29% 12.3 mph SE19.8 kmh SE 21.0 mph33.8 kmh 30.24 in1024.0 mb 0.00 in0.0 mm 0.00 in0.0 mm 0.00 in0.0 mm
02:11 PM 48.9°F9.4°C 18.0°F-7.8°C 29% 11.9 mph NNW19.2 kmh NNW 17.9 mph28.8 kmh 30.24 in1024.0 mb 0.00 in0.0 mm 0.00 in0.0 mm 0.00 in0.0 mm
02:09 PM 48.9°F9.4°C 19.6°F-6.9°C 31% 9.8 mph W15.8 kmh W 21.5 mph34.6 kmh 30.24 in1024.0 mb 0.00 in0.0 mm 0.00 in0.0 mm 0.00 in0.0 mm
02:06 PM 48.9°F9.4°C 19.6°F-6.9°C 31% 9.4 mph NNE15.1 kmh NNE 16.6 mph26.7 kmh 30.23 in1023.7 mb 0.00 in0.0 mm 0.00 in0.0 mm 0.00 in0.0 mm
02:04 PM 48.9°F9.4°C 18.9°F-7.3°C 30% 11.9 mph ENE19.2 kmh ENE 22.6 mph36.4 kmh 30.24 in1024.0 mb 0.00 in0.0 mm 0.00 in0.0 mm 0.00 in0.0 mm
02:02 PM 48.7°F9.3°C 18.7°F-7.4°C 30% 11.9 mph E19.2 kmh E 19.5 mph31.4 kmh 30.24 in1024.0 mb 0.00 in0.0 mm 0.00 in0.0 mm 0.00 in0.0 mm
02:00 PM 48.7°F9.3°C 20.1°F-6.6°C 32% 13.2 mph ENE21.2 kmh ENE 18.8 mph30.3 kmh 30.24 in1024.0 mb 0.00 in0.0 mm 0.00 in0.0 mm 0.00 in0.0 mm
01:57 PM 48.7°F9.3°C 19.4°F-7.0°C 31% 13.0 mph WSW20.9 kmh WSW 23.9 mph38.5 kmh 30.24 in1024.0 mb 0.00 in0.0 mm 0.00 in0.0 mm 0.00 in0.0 mm
01:55 PM 48.7°F9.3°C 20.1°F-6.6°C 32% 12.8 mph ESE20.6 kmh ESE 21.5 mph34.6 kmh 30.25 in1024.4 mb 0.00 in0.0 mm 0.00 in0.0 mm 0.00 in0.0 mm
01:53 PM 48.7°F9.3°C 20.8°F-6.2°C 33% 13.4 mph NE21.6 kmh NE 20.1 mph32.3 kmh 30.24 in1024.0 mb 0.00 in0.0 mm 0.00 in0.0 mm 0.00 in0.0 mm
01:51 PM 48.7°F9.3°C 21.6°F-5.8°C 34% 13.4 mph SE21.6 kmh SE 18.3 mph29.5 kmh 30.25 in1024.4 mb 0.00 in0.0 mm 0.00 in0.0 mm 0.00 in0.0 mm
01:49 PM 48.7°F9.3°C 20.8°F-6.2°C 33% 12.1 mph WNW19.5 kmh WNW 18.1 mph29.1 kmh 30.25 in1024.4 mb 0.00 in0.0 mm 0.00 in0.0 mm 0.00 in0.0 mm
01:47 PM 48.9°F9.4°C 23.7°F-4.6°C 37% 12.5 mph NNW20.1 kmh NNW 21.9 mph35.2 kmh 30.26 in1024.7 mb 0.00 in0.0 mm 0.00 in0.0 mm 0.00 in0.0 mm
01:45 PM 48.9°F9.4°C 25.7°F-3.5°C 40% 10.1 mph E16.3 kmh E 27.3 mph43.9 kmh 30.27 in1025.1 mb 0.00 in0.0 mm 0.00 in0.0 mm 0.00 in0.0 mm
01:42 PM 48.7°F9.3°C 26.1°F-3.3°C 41% 9.2 mph ENE14.8 kmh ENE 13.6 mph21.9 kmh 30.27 in1025.1 mb 0.00 in0.0 mm 0.00 in0.0 mm 0.00 in0.0 mm
01:40 PM 48.7°F9.3°C 26.6°F-3.0°C 42% 8.5 mph NNW13.7 kmh NNW 13.0 mph20.9 kmh 30.27 in1025.1 mb 0.00 in0.0 mm 0.00 in0.0 mm 0.00 in0.0 mm
01:38 PM 48.7°F9.3°C 27.3°F-2.6°C 43% 9.6 mph ENE15.4 kmh ENE 12.3 mph19.8 kmh 30.26 in1024.7 mb 0.00 in0.0 mm 0.00 in0.0 mm 0.00 in0.0 mm
01:35 PM 48.7°F9.3°C 27.9°F-2.3°C 44% 12.5 mph ESE20.1 kmh ESE 17.4 mph28.0 kmh 30.26 in1024.7 mb 0.00 in0.0 mm 0.00 in0.0 mm 0.00 in0.0 mm
01:33 PM 48.7°F9.3°C 28.9°F-1.7°C 46% 12.3 mph ESE19.8 kmh ESE 21.0 mph33.8 kmh 30.26 in1024.7 mb 0.00 in0.0 mm 0.00 in0.0 mm 0.00 in0.0 mm
01:31 PM 48.9°F9.4°C 29.1°F-1.6°C 46% 11.4 mph ESE18.3 kmh ESE 21.3 mph34.3 kmh 30.26 in1024.7 mb 0.00 in0.0 mm 0.00 in0.0 mm 0.00 in0.0 mm
01:29 PM 49.1°F9.5°C 30.2°F-1.0°C 48% 10.1 mph ENE16.3 kmh ENE 24.4 mph39.3 kmh 30.27 in1025.1 mb 0.00 in0.0 mm 0.00 in0.0 mm 0.00 in0.0 mm
01:26 PM 49.3°F9.6°C 30.9°F-0.6°C 49% 8.3 mph ESE13.4 kmh ESE 14.8 mph23.8 kmh 30.27 in1025.1 mb 0.00 in0.0 mm 0.00 in0.0 mm 0.00 in0.0 mm
01:24 PM 49.1°F9.5°C 31.3°F-0.4°C 50% 9.2 mph S14.8 kmh S 18.8 mph30.3 kmh 30.26 in1024.7 mb 0.00 in0.0 mm 0.00 in0.0 mm 0.00 in0.0 mm
01:22 PM 48.9°F9.4°C 31.1°F-0.5°C 50% 10.1 mph ENE16.3 kmh ENE 20.1 mph32.3 kmh 30.27 in1025.1 mb 0.00 in0.0 mm 0.00 in0.0 mm 0.00 in0.0 mm
01:20 PM 48.9°F9.4°C 30.6°F-0.8°C 49% 9.4 mph E15.1 kmh E 14.8 mph23.8 kmh 30.27 in1025.1 mb 0.00 in0.0 mm 0.00 in0.0 mm 0.00 in0.0 mm
01:17 PM 48.7°F9.3°C 30.9°F-0.6°C 50% 7.4 mph 11.9 kmh 10.3 mph16.6 kmh 30.27 in1025.1 mb 0.00 in0.0 mm 0.00 in0.0 mm 0.00 in0.0 mm
01:15 PM 48.7°F9.3°C 30.4°F-0.9°C 49% 8.7 mph ESE14.0 kmh ESE 13.0 mph20.9 kmh 30.27 in1025.1 mb 0.00 in0.0 mm 0.00 in0.0 mm 0.00 in0.0 mm
01:13 PM 48.7°F9.3°C 30.9°F-0.6°C 50% 7.6 mph WSW12.2 kmh WSW 9.2 mph14.8 kmh 30.27 in1025.1 mb 0.00 in0.0 mm 0.00 in0.0 mm 0.00 in0.0 mm
01:10 PM 48.7°F9.3°C 30.4°F-0.9°C 49% 9.8 mph NNE15.8 kmh NNE 21.9 mph35.2 kmh 30.26 in1024.7 mb 0.00 in0.0 mm 0.00 in0.0 mm 0.00 in0.0 mm
01:08 PM 49.1°F9.5°C 31.3°F-0.4°C 50% 8.3 mph ENE13.4 kmh ENE 11.0 mph17.7 kmh 30.26 in1024.7 mb 0.00 in0.0 mm 0.00 in0.0 mm 0.00 in0.0 mm
01:06 PM 49.3°F9.6°C 32.0°F0.0°C 51% 8.1 mph NE13.0 kmh NE 8.9 mph14.3 kmh 30.27 in1025.1 mb 0.00 in0.0 mm 0.00 in0.0 mm 0.00 in0.0 mm
01:04 PM 49.5°F9.7°C 32.0°F0.0°C 51% 8.9 mph ENE14.3 kmh ENE 14.1 mph22.7 kmh 30.27 in1025.1 mb 0.00 in0.0 mm 0.00 in0.0 mm 0.00 in0.0 mm
01:01 PM 49.5°F9.7°C 32.5°F0.3°C 52% 7.8 mph NE12.6 kmh NE 6.3 mph10.1 kmh 30.27 in1025.1 mb 0.00 in0.0 mm 0.00 in0.0 mm 0.00 in0.0 mm
12:59 PM 49.1°F9.5°C 31.8°F-0.1°C 51% 11.2 mph ENE18.0 kmh ENE 20.8 mph33.5 kmh 30.27 in1025.1 mb 0.00 in0.0 mm 0.00 in0.0 mm 0.00 in0.0 mm
12:57 PM 49.3°F9.6°C 32.0°F0.0°C 51% 10.3 mph ESE16.6 kmh ESE 14.1 mph22.7 kmh 30.27 in1025.1 mb 0.00 in0.0 mm 0.00 in0.0 mm 0.00 in0.0 mm
12:55 PM 49.5°F9.7°C 32.5°F0.3°C 52% 11.6 mph ESE18.7 kmh ESE 18.1 mph29.1 kmh 30.27 in1025.1 mb 0.00 in0.0 mm 0.00 in0.0 mm 0.00 in0.0 mm
12:52 PM 49.1°F9.5°C 32.2°F0.1°C 52% 11.2 mph NE18.0 kmh NE 18.3 mph29.5 kmh 30.27 in1025.1 mb 0.00 in0.0 mm 0.00 in0.0 mm 0.00 in0.0 mm
12:50 PM 48.9°F9.4°C 32.0°F0.0°C 52% 12.1 mph ESE19.5 kmh ESE 18.1 mph29.1 kmh 30.27 in1025.1 mb 0.00 in0.0 mm 0.00 in0.0 mm 0.00 in0.0 mm
12:48 PM 48.6°F9.2°C 31.3°F-0.4°C 51% 12.1 mph E19.5 kmh E 18.8 mph30.3 kmh 30.28 in1025.4 mb 0.00 in0.0 mm 0.00 in0.0 mm 0.00 in0.0 mm
12:46 PM 49.1°F9.5°C 31.8°F-0.1°C 51% 12.3 mph ESE19.8 kmh ESE 20.1 mph32.3 kmh 30.28 in1025.4 mb 0.00 in0.0 mm 0.00 in0.0 mm 0.00 in0.0 mm
12:44 PM 49.3°F9.6°C 32.4°F0.2°C 52% 8.9 mph ENE14.3 kmh ENE 8.5 mph13.7 kmh 30.27 in1025.1 mb 0.00 in0.0 mm 0.00 in0.0 mm 0.00 in0.0 mm
12:41 PM 49.1°F9.5°C 32.2°F0.1°C 52% 11.4 mph ENE18.3 kmh ENE 13.4 mph21.6 kmh 30.27 in1025.1 mb 0.00 in0.0 mm 0.00 in0.0 mm 0.00 in0.0 mm
12:39 PM 49.1°F9.5°C 32.2°F0.1°C 52% 12.5 mph ENE20.1 kmh ENE 18.8 mph30.3 kmh 30.27 in1025.1 mb 0.00 in0.0 mm 0.00 in0.0 mm 0.00 in0.0 mm
12:37 PM 49.1°F9.5°C 32.2°F0.1°C 52% 10.1 mph NNW16.3 kmh NNW 14.3 mph23.0 kmh 30.27 in1025.1 mb 0.00 in0.0 mm 0.00 in0.0 mm 0.00 in0.0 mm
12:35 PM 48.9°F9.4°C 31.6°F-0.2°C 51% 12.5 mph E20.1 kmh E 17.0 mph27.4 kmh 30.28 in1025.4 mb 0.00 in0.0 mm 0.00 in0.0 mm 0.00 in0.0 mm
12:33 PM 49.1°F9.5°C 32.7°F0.4°C 53% 10.7 mph ESE17.2 kmh ESE 18.1 mph29.1 kmh 30.27 in1025.1 mb 0.00 in0.0 mm 0.00 in0.0 mm 0.00 in0.0 mm
12:30 PM 48.9°F9.4°C 32.0°F0.0°C 52% 11.2 mph NE18.0 kmh NE 19.5 mph31.4 kmh 30.28 in1025.4 mb 0.00 in0.0 mm 0.00 in0.0 mm 0.00 in0.0 mm
12:28 PM 48.9°F9.4°C 32.0°F0.0°C 52% 11.4 mph E18.3 kmh E 19.0 mph30.6 kmh 30.27 in1025.1 mb 0.00 in0.0 mm 0.00 in0.0 mm 0.00 in0.0 mm
12:26 PM 48.7°F9.3°C 31.8°F-0.1°C 52% 10.5 mph SE16.9 kmh SE 18.6 mph29.9 kmh 30.27 in1025.1 mb 0.00 in0.0 mm 0.00 in0.0 mm 0.00 in0.0 mm
12:23 PM 48.7°F9.3°C 32.4°F0.2°C 53% 10.1 mph ESE16.3 kmh ESE 17.7 mph28.5 kmh 30.28 in1025.4 mb 0.00 in0.0 mm 0.00 in0.0 mm 0.00 in0.0 mm
12:21 PM 48.7°F9.3°C 32.4°F0.2°C 53% 9.6 mph ENE15.4 kmh ENE 13.4 mph21.6 kmh 30.27 in1025.1 mb 0.00 in0.0 mm 0.00 in0.0 mm 0.00 in0.0 mm
12:19 PM 48.7°F9.3°C 32.4°F0.2°C 53% 11.9 mph SE19.2 kmh SE 18.3 mph29.5 kmh 30.27 in1025.1 mb 0.00 in0.0 mm 0.00 in0.0 mm 0.00 in0.0 mm
12:17 PM 48.9°F9.4°C 32.5°F0.3°C 53% 11.0 mph E17.7 kmh E 18.3 mph29.5 kmh 30.27 in1025.1 mb 0.00 in0.0 mm 0.00 in0.0 mm 0.00 in0.0 mm
12:15 PM 48.7°F9.3°C 33.3°F0.7°C 55% 9.4 mph NE15.1 kmh NE 9.6 mph15.4 kmh 30.27 in1025.1 mb 0.00 in0.0 mm 0.00 in0.0 mm 0.00 in0.0 mm
12:13 PM 48.7°F9.3°C 32.9°F0.5°C 54% 11.4 mph NE18.3 kmh NE 17.2 mph27.7 kmh 30.27 in1025.1 mb 0.00 in0.0 mm 0.00 in0.0 mm 0.00 in0.0 mm
12:10 PM 48.4°F9.1°C 32.9°F0.5°C 55% 11.9 mph E19.2 kmh E 15.2 mph24.5 kmh 30.27 in1025.1 mb 0.00 in0.0 mm 0.00 in0.0 mm 0.00 in0.0 mm
12:08 PM 48.4°F9.1°C 32.9°F0.5°C 55% 11.9 mph E19.2 kmh E 15.7 mph25.3 kmh 30.27 in1025.1 mb 0.00 in0.0 mm 0.00 in0.0 mm 0.00 in0.0 mm
12:06 PM 48.4°F9.1°C 32.9°F0.5°C 55% 13.0 mph E20.9 kmh E 17.0 mph27.4 kmh 30.27 in1025.1 mb 0.00 in0.0 mm 0.00 in0.0 mm 0.00 in0.0 mm
12:04 PM 48.4°F9.1°C 32.9°F0.5°C 55% 13.4 mph ENE21.6 kmh ENE 17.4 mph28.0 kmh 30.27 in1025.1 mb 0.00 in0.0 mm 0.00 in0.0 mm 0.00 in0.0 mm
12:01 PM 48.6°F9.2°C 33.1°F0.6°C 55% 13.2 mph 21.2 kmh 20.1 mph32.3 kmh 30.28 in1025.4 mb 0.00 in0.0 mm 0.00 in0.0 mm 0.00 in0.0 mm
11:59 AM 48.6°F9.2°C 33.1°F0.6°C 55% 13.0 mph ESE20.9 kmh ESE 19.0 mph30.6 kmh 30.28 in1025.4 mb 0.00 in0.0 mm 0.00 in0.0 mm 0.00 in0.0 mm
11:57 AM 48.7°F9.3°C 33.8°F1.0°C 56% 10.7 mph ESE17.2 kmh ESE 17.0 mph27.4 kmh 30.28 in1025.4 mb 0.00 in0.0 mm 0.00 in0.0 mm 0.00 in0.0 mm
11:55 AM 48.9°F9.4°C 34.3°F1.3°C 57% 9.8 mph NNE15.8 kmh NNE 20.6 mph33.2 kmh 30.28 in1025.4 mb 0.00 in0.0 mm 0.00 in0.0 mm 0.00 in0.0 mm
11:52 AM 49.1°F9.5°C 34.9°F1.6°C 58% 8.3 mph E13.4 kmh E 17.2 mph27.7 kmh 30.29 in1025.7 mb 0.00 in0.0 mm 0.00 in0.0 mm 0.00 in0.0 mm
11:50 AM 49.1°F9.5°C 34.9°F1.6°C 58% 6.7 mph SSW10.8 kmh SSW 9.2 mph14.8 kmh 30.28 in1025.4 mb 0.00 in0.0 mm 0.00 in0.0 mm 0.00 in0.0 mm
11:48 AM 49.1°F9.5°C 34.9°F1.6°C 58% 8.1 mph ESE13.0 kmh ESE 10.5 mph16.9 kmh 30.27 in1025.1 mb 0.00 in0.0 mm 0.00 in0.0 mm 0.00 in0.0 mm
11:46 AM 48.9°F9.4°C 34.9°F1.6°C 58% 7.6 mph ENE12.2 kmh ENE 12.3 mph19.8 kmh 30.27 in1025.1 mb 0.00 in0.0 mm 0.00 in0.0 mm 0.00 in0.0 mm
11:44 AM 49.1°F9.5°C 35.4°F1.9°C 59% 6.3 mph 10.1 kmh 12.3 mph19.8 kmh 30.27 in1025.1 mb 0.00 in0.0 mm 0.00 in0.0 mm 0.00 in0.0 mm
11:41 AM 49.1°F9.5°C 35.4°F1.9°C 59% 6.3 mph ENE10.1 kmh ENE 8.9 mph14.3 kmh 30.28 in1025.4 mb 0.00 in0.0 mm 0.00 in0.0 mm 0.00 in0.0 mm
11:39 AM 48.9°F9.4°C 35.2°F1.8°C 59% 6.7 mph 10.8 kmh 12.8 mph20.6 kmh 30.28 in1025.4 mb 0.00 in0.0 mm 0.00 in0.0 mm 0.00 in0.0 mm
11:37 AM 48.7°F9.3°C 35.1°F1.7°C 59% 7.6 mph ESE12.2 kmh ESE 8.9 mph14.3 kmh 30.28 in1025.4 mb 0.00 in0.0 mm 0.00 in0.0 mm 0.00 in0.0 mm
11:35 AM 48.6°F9.2°C 34.9°F1.6°C 59% 9.4 mph ESE15.1 kmh ESE 10.5 mph16.9 kmh 30.28 in1025.4 mb 0.00 in0.0 mm 0.00 in0.0 mm 0.00 in0.0 mm
11:33 AM 48.7°F9.3°C 35.1°F1.7°C 59% 10.5 mph E16.9 kmh E 15.0 mph24.1 kmh 30.28 in1025.4 mb 0.00 in0.0 mm 0.00 in0.0 mm 0.00 in0.0 mm
11:30 AM 48.9°F9.4°C 35.2°F1.8°C 59% 10.3 mph E16.6 kmh E 17.9 mph28.8 kmh 30.29 in1025.7 mb 0.00 in0.0 mm 0.00 in0.0 mm 0.00 in0.0 mm
11:28 AM 49.1°F9.5°C 35.4°F1.9°C 59% 7.8 mph ENE12.6 kmh ENE 14.3 mph23.0 kmh 30.29 in1025.7 mb 0.00 in0.0 mm 0.00 in0.0 mm 0.00 in0.0 mm
11:26 AM 48.9°F9.4°C 35.6°F2.0°C 60% 7.8 mph ENE12.6 kmh ENE 14.3 mph23.0 kmh 30.28 in1025.4 mb 0.00 in0.0 mm 0.00 in0.0 mm 0.00 in0.0 mm
11:24 AM 48.7°F9.3°C 35.4°F1.9°C 60% 6.7 mph E10.8 kmh E 14.5 mph23.3 kmh 30.28 in1025.4 mb 0.00 in0.0 mm 0.00 in0.0 mm 0.00 in0.0 mm
11:22 AM 48.7°F9.3°C 35.4°F1.9°C 60% 5.4 mph SSW8.7 kmh SSW 9.2 mph14.8 kmh 30.28 in1025.4 mb 0.00 in0.0 mm 0.00 in0.0 mm 0.00 in0.0 mm
11:20 AM 48.6°F9.2°C 35.2°F1.8°C 60% 5.8 mph E9.3 kmh E 10.3 mph16.6 kmh 30.28 in1025.4 mb 0.00 in0.0 mm 0.00 in0.0 mm 0.00 in0.0 mm
11:17 AM 48.2°F9.0°C 34.9°F1.6°C 60% 5.1 mph ESE8.2 kmh ESE 4.5 mph7.2 kmh 30.28 in1025.4 mb 0.00 in0.0 mm 0.00 in0.0 mm 0.00 in0.0 mm
11:15 AM 48.0°F8.9°C 34.9°F1.6°C 60% 6.7 mph ENE10.8 kmh ENE 8.3 mph13.4 kmh 30.28 in1025.4 mb 0.00 in0.0 mm 0.00 in0.0 mm 0.00 in0.0 mm
11:13 AM 48.0°F8.9°C 34.9°F1.6°C 60% 8.3 mph ESE13.4 kmh ESE 9.8 mph15.8 kmh 30.29 in1025.7 mb 0.00 in0.0 mm 0.00 in0.0 mm 0.00 in0.0 mm
11:11 AM 47.8°F8.8°C 34.7°F1.5°C 60% 8.9 mph ESE14.3 kmh ESE 10.7 mph17.2 kmh 30.29 in1025.7 mb 0.00 in0.0 mm 0.00 in0.0 mm 0.00 in0.0 mm
11:08 AM 47.8°F8.8°C 34.7°F1.5°C 60% 9.8 mph NE15.8 kmh NE 12.5 mph20.1 kmh 30.29 in1025.7 mb 0.00 in0.0 mm 0.00 in0.0 mm 0.00 in0.0 mm
11:06 AM 47.7°F8.7°C 34.5°F1.4°C 60% 8.9 mph SE14.3 kmh SE 14.5 mph23.3 kmh 30.29 in1025.7 mb 0.00 in0.0 mm 0.00 in0.0 mm 0.00 in0.0 mm
11:04 AM 47.8°F8.8°C 34.7°F1.5°C 60% 8.1 mph ESE13.0 kmh ESE 11.9 mph19.2 kmh 30.29 in1025.7 mb 0.00 in0.0 mm 0.00 in0.0 mm 0.00 in0.0 mm
11:02 AM 47.8°F8.8°C 34.7°F1.5°C 60% 8.3 mph ENE13.4 kmh ENE 9.8 mph15.8 kmh 30.29 in1025.7 mb 0.00 in0.0 mm 0.00 in0.0 mm 0.00 in0.0 mm
11:00 AM 48.0°F8.9°C 34.9°F1.6°C 60% 9.2 mph E14.8 kmh E 11.9 mph19.2 kmh 30.29 in1025.7 mb 0.00 in0.0 mm 0.00 in0.0 mm 0.00 in0.0 mm
10:57 AM 47.8°F8.8°C 34.7°F1.5°C 60% 9.8 mph ESE15.8 kmh ESE 17.2 mph27.7 kmh 30.29 in1025.7 mb 0.00 in0.0 mm 0.00 in0.0 mm 0.00 in0.0 mm
10:55 AM 47.8°F8.8°C 34.7°F1.5°C 60% 10.7 mph ENE17.2 kmh ENE 15.9 mph25.6 kmh 30.29 in1025.7 mb 0.00 in0.0 mm 0.00 in0.0 mm 0.00 in0.0 mm
10:53 AM 47.8°F8.8°C 34.7°F1.5°C 60% 9.2 mph ESE14.8 kmh ESE 11.9 mph19.2 kmh 30.29 in1025.7 mb 0.00 in0.0 mm 0.00 in0.0 mm 0.00 in0.0 mm
10:51 AM 47.8°F8.8°C 35.1°F1.7°C 61% 8.9 mph E14.3 kmh E 13.6 mph21.9 kmh 30.29 in1025.7 mb 0.00 in0.0 mm 0.00 in0.0 mm 0.00 in0.0 mm
10:48 AM 47.8°F8.8°C 35.4°F1.9°C 62% 9.6 mph ESE15.4 kmh ESE 12.8 mph20.6 kmh 30.29 in1025.7 mb 0.00 in0.0 mm 0.00 in0.0 mm 0.00 in0.0 mm
10:46 AM 48.0°F8.9°C 35.2°F1.8°C 61% 11.9 mph ESE19.2 kmh ESE 14.5 mph23.3 kmh 30.29 in1025.7 mb 0.00 in0.0 mm 0.00 in0.0 mm 0.00 in0.0 mm
10:44 AM 48.0°F8.9°C 35.6°F2.0°C 62% 11.6 mph ESE18.7 kmh ESE 12.8 mph20.6 kmh 30.30 in1026.1 mb 0.00 in0.0 mm 0.00 in0.0 mm 0.00 in0.0 mm
10:42 AM 48.4°F9.1°C 36.3°F2.4°C 63% 12.8 mph E20.6 kmh E 17.0 mph27.4 kmh 30.30 in1026.1 mb 0.00 in0.0 mm 0.00 in0.0 mm 0.00 in0.0 mm
10:40 AM 48.6°F9.2°C 36.9°F2.7°C 64% 12.3 mph NE19.8 kmh NE 19.7 mph31.7 kmh 30.30 in1026.1 mb 0.00 in0.0 mm 0.00 in0.0 mm 0.00 in0.0 mm
10:37 AM 48.9°F9.4°C 37.8°F3.2°C 65% 11.9 mph ESE19.2 kmh ESE 19.5 mph31.4 kmh 30.29 in1025.7 mb 0.00 in0.0 mm 0.00 in0.0 mm 0.00 in0.0 mm
10:35 AM 48.9°F9.4°C 37.8°F3.2°C 65% 11.2 mph ENE18.0 kmh ENE 17.2 mph27.7 kmh 30.29 in1025.7 mb 0.00 in0.0 mm 0.00 in0.0 mm 0.00 in0.0 mm
10:33 AM 48.9°F9.4°C 38.1°F3.4°C 66% 10.1 mph E16.3 kmh E 18.1 mph29.1 kmh 30.29 in1025.7 mb 0.00 in0.0 mm 0.00 in0.0 mm 0.00 in0.0 mm
10:31 AM 48.9°F9.4°C 38.8°F3.8°C 68% 8.9 mph E14.3 kmh E 18.1 mph29.1 kmh 30.29 in1025.7 mb 0.00 in0.0 mm 0.00 in0.0 mm 0.00 in0.0 mm
10:29 AM 48.7°F9.3°C 38.7°F3.7°C 68% 7.6 mph E12.2 kmh E 11.2 mph18.0 kmh 30.29 in1025.7 mb 0.00 in0.0 mm 0.00 in0.0 mm 0.00 in0.0 mm
10:26 AM 48.7°F9.3°C 38.7°F3.7°C 68% 8.3 mph SE13.4 kmh SE 9.4 mph15.1 kmh 30.29 in1025.7 mb 0.00 in0.0 mm 0.00 in0.0 mm 0.00 in0.0 mm
10:24 AM 48.7°F9.3°C 39.4°F4.1°C 70% 8.7 mph E14.0 kmh E 14.1 mph22.7 kmh 30.30 in1026.1 mb 0.00 in0.0 mm 0.00 in0.0 mm 0.00 in0.0 mm
10:22 AM 48.4°F9.1°C 39.0°F3.9°C 70% 8.3 mph ESE13.4 kmh ESE 9.6 mph15.4 kmh 30.29 in1025.7 mb 0.00 in0.0 mm 0.00 in0.0 mm 0.00 in0.0 mm
10:20 AM 48.0°F8.9°C 39.0°F3.9°C 71% 9.6 mph ESE15.4 kmh ESE 17.4 mph28.0 kmh 30.29 in1025.7 mb 0.00 in0.0 mm 0.00 in0.0 mm 0.00 in0.0 mm
10:17 AM 48.2°F9.0°C 39.9°F4.4°C 73% 8.1 mph ESE13.0 kmh ESE 15.9 mph25.6 kmh 30.29 in1025.7 mb 0.00 in0.0 mm 0.00 in0.0 mm 0.00 in0.0 mm
10:15 AM 48.0°F8.9°C 40.1°F4.5°C 74% 5.1 mph NNE8.2 kmh NNE 10.7 mph17.2 kmh 30.29 in1025.7 mb 0.00 in0.0 mm 0.00 in0.0 mm 0.00 in0.0 mm
10:13 AM 47.8°F8.8°C 39.9°F4.4°C 74% 5.8 mph SSE9.3 kmh SSE 6.9 mph11.1 kmh 30.29 in1025.7 mb 0.00 in0.0 mm 0.00 in0.0 mm 0.00 in0.0 mm
10:11 AM 47.7°F8.7°C 40.1°F4.5°C 75% 7.2 mph ENE11.6 kmh ENE 8.9 mph14.3 kmh 30.29 in1025.7 mb 0.00 in0.0 mm 0.00 in0.0 mm 0.00 in0.0 mm
10:09 AM 47.5°F8.6°C 39.9°F4.4°C 75% 8.3 mph S13.4 kmh S 8.9 mph14.3 kmh 30.29 in1025.7 mb 0.00 in0.0 mm 0.00 in0.0 mm 0.00 in0.0 mm
10:07 AM 47.5°F8.6°C 39.9°F4.4°C 75% 10.3 mph E16.6 kmh E 17.9 mph28.8 kmh 30.29 in1025.7 mb 0.00 in0.0 mm 0.00 in0.0 mm 0.00 in0.0 mm
10:04 AM 47.8°F8.8°C 40.6°F4.8°C 76% 8.7 mph ESE14.0 kmh ESE 12.1 mph19.5 kmh 30.30 in1026.1 mb 0.00 in0.0 mm 0.00 in0.0 mm 0.00 in0.0 mm
10:02 AM 47.8°F8.8°C 41.0°F5.0°C 77% 10.1 mph ENE16.3 kmh ENE 19.2 mph30.9 kmh 30.29 in1025.7 mb 0.00 in0.0 mm 0.00 in0.0 mm 0.00 in0.0 mm
10:00 AM 48.0°F8.9°C 41.9°F5.5°C 79% 8.1 mph SSW13.0 kmh SSW 17.0 mph27.4 kmh 30.29 in1025.7 mb 0.00 in0.0 mm 0.00 in0.0 mm 0.00 in0.0 mm
09:57 AM 48.0°F8.9°C 42.4°F5.8°C 81% 8.1 mph ESE13.0 kmh ESE 10.3 mph16.6 kmh 30.29 in1025.7 mb 0.00 in0.0 mm 0.00 in0.0 mm 0.00 in0.0 mm
09:55 AM 47.8°F8.8°C 42.6°F5.9°C 82% 7.8 mph NNE12.6 kmh NNE 11.4 mph18.3 kmh 30.29 in1025.7 mb 0.00 in0.0 mm 0.00 in0.0 mm 0.00 in0.0 mm
09:53 AM 47.1°F8.4°C 42.3°F5.7°C 83% 9.8 mph ESE15.8 kmh ESE 15.2 mph24.5 kmh 30.29 in1025.7 mb 0.00 in0.0 mm 0.00 in0.0 mm 0.00 in0.0 mm
09:51 AM 46.8°F8.2°C 42.4°F5.8°C 85% 8.1 mph ESE13.0 kmh ESE 13.4 mph21.6 kmh 30.29 in1025.7 mb 0.00 in0.0 mm 0.00 in0.0 mm 0.00 in0.0 mm
09:48 AM 45.7°F7.6°C 41.4°F5.2°C 85% 6.0 mph ENE9.7 kmh ENE 14.3 mph23.0 kmh 30.28 in1025.4 mb 0.00 in0.0 mm 0.00 in0.0 mm 0.00 in0.0 mm
09:46 AM 45.1°F7.3°C 40.8°F4.9°C 85% 2.9 mph E4.7 kmh E 9.2 mph14.8 kmh 30.28 in1025.4 mb 0.00 in0.0 mm 0.00 in0.0 mm 0.00 in0.0 mm
09:44 AM 44.6°F7.0°C 40.5°F4.7°C 85% 2.2 mph ENE3.5 kmh ENE 4.0 mph6.4 kmh 30.29 in1025.7 mb 0.00 in0.0 mm 0.00 in0.0 mm 0.00 in0.0 mm
09:42 AM 44.4°F6.9°C 39.9°F4.4°C 84% 2.0 mph ENE3.2 kmh ENE 4.7 mph7.6 kmh 30.29 in1025.7 mb 0.00 in0.0 mm 0.00 in0.0 mm 0.00 in0.0 mm
09:40 AM 44.6°F7.0°C 40.1°F4.5°C 84% 2.2 mph NNE3.5 kmh NNE 3.1 mph5.0 kmh 30.28 in1025.4 mb 0.00 in0.0 mm 0.00 in0.0 mm 0.00 in0.0 mm
09:38 AM 44.6°F7.0°C 40.1°F4.5°C 84% 3.1 mph 5.0 kmh 4.0 mph6.4 kmh 30.29 in1025.7 mb 0.00 in0.0 mm 0.00 in0.0 mm 0.00 in0.0 mm
09:35 AM 44.4°F6.9°C 39.9°F4.4°C 84% 3.4 mph NE5.5 kmh NE 6.5 mph10.5 kmh 30.29 in1025.7 mb 0.00 in0.0 mm 0.00 in0.0 mm 0.00 in0.0 mm
09:33 AM 44.8°F7.1°C 40.3°F4.6°C 84% 2.5 mph 4.0 kmh 4.3 mph6.9 kmh 30.29 in1025.7 mb 0.00 in0.0 mm 0.00 in0.0 mm 0.00 in0.0 mm
09:31 AM 45.1°F7.3°C 40.3°F4.6°C 83% 1.6 mph 2.6 kmh 3.1 mph5.0 kmh 30.29 in1025.7 mb 0.00 in0.0 mm 0.00 in0.0 mm 0.00 in0.0 mm
09:29 AM 45.3°F7.4°C 40.5°F4.7°C 83% 0.9 mph 1.4 kmh 2.2 mph3.5 kmh 30.29 in1025.7 mb 0.00 in0.0 mm 0.00 in0.0 mm 0.00 in0.0 mm
09:27 AM 45.1°F7.3°C 40.3°F4.6°C 83% 0.7 mph ENE1.1 kmh ENE 1.6 mph2.6 kmh 30.29 in1025.7 mb 0.00 in0.0 mm 0.00 in0.0 mm 0.00 in0.0 mm
09:25 AM 45.1°F7.3°C 40.3°F4.6°C 83% 0.9 mph NE1.4 kmh NE 3.8 mph6.1 kmh 30.28 in1025.4 mb 0.00 in0.0 mm 0.00 in0.0 mm 0.00 in0.0 mm
09:23 AM 44.8°F7.1°C 39.9°F4.4°C 83% 0.9 mph ESE1.4 kmh ESE 3.1 mph5.0 kmh 30.28 in1025.4 mb 0.00 in0.0 mm 0.00 in0.0 mm 0.00 in0.0 mm
09:20 AM 44.4°F6.9°C 39.6°F4.2°C 83% 0.2 mph NNE0.3 kmh NNE -- 30.29 in1025.7 mb 0.00 in0.0 mm 0.00 in0.0 mm 0.00 in0.0 mm
09:18 AM 44.4°F6.9°C 39.6°F4.2°C 83% 0.4 mph E0.6 kmh E 1.3 mph2.1 kmh 30.29 in1025.7 mb 0.00 in0.0 mm 0.00 in0.0 mm 0.00 in0.0 mm
09:16 AM 44.4°F6.9°C 39.2°F4.0°C 82% 0.4 mph 0.6 kmh 1.3 mph2.1 kmh 30.29 in1025.7 mb 0.00 in0.0 mm 0.00 in0.0 mm 0.00 in0.0 mm
09:14 AM 44.4°F6.9°C 39.2°F4.0°C 82% 0.9 mph NE1.4 kmh NE 2.5 mph4.0 kmh 30.29 in1025.7 mb 0.00 in0.0 mm 0.00 in0.0 mm 0.00 in0.0 mm
09:12 AM 44.4°F6.9°C 39.2°F4.0°C 82% 1.1 mph NW1.8 kmh NW 3.8 mph6.1 kmh 30.29 in1025.7 mb 0.00 in0.0 mm 0.00 in0.0 mm 0.00 in0.0 mm
09:09 AM 44.8°F7.1°C 39.6°F4.2°C 82% 0.9 mph W1.4 kmh W 2.7 mph4.3 kmh 30.29 in1025.7 mb 0.00 in0.0 mm 0.00 in0.0 mm 0.00 in0.0 mm
09:07 AM 45.0°F7.2°C 39.7°F4.3°C 82% 0.4 mph NE0.6 kmh NE 0.9 mph1.4 kmh 30.28 in1025.4 mb 0.00 in0.0 mm 0.00 in0.0 mm 0.00 in0.0 mm
09:05 AM 45.1°F7.3°C 39.9°F4.4°C 82% 0.4 mph NNE0.6 kmh NNE -- 30.28 in1025.4 mb 0.00 in0.0 mm 0.00 in0.0 mm 0.00 in0.0 mm
09:03 AM 45.1°F7.3°C 39.9°F4.4°C 82% 0.7 mph ENE1.1 kmh ENE 2.0 mph3.2 kmh 30.29 in1025.7 mb 0.00 in0.0 mm 0.00 in0.0 mm 0.00 in0.0 mm
09:01 AM 45.3°F7.4°C 40.1°F4.5°C 82% 0.4 mph 0.6 kmh 1.3 mph2.1 kmh 30.28 in1025.4 mb 0.00 in0.0 mm 0.00 in0.0 mm 0.00 in0.0 mm
08:59 AM 45.3°F7.4°C 40.1°F4.5°C 82% 0.4 mph 0.6 kmh 1.6 mph2.6 kmh 30.28 in1025.4 mb 0.00 in0.0 mm 0.00 in0.0 mm 0.00 in0.0 mm
08:56 AM 45.3°F7.4°C 40.1°F4.5°C 82% 0.2 mph NE0.3 kmh NE -- 30.28 in1025.4 mb 0.00 in0.0 mm 0.00 in0.0 mm 0.00 in0.0 mm
08:54 AM 45.1°F7.3°C 39.9°F4.4°C 82% 0.2 mph 0.3 kmh -- 30.28 in1025.4 mb 0.00 in0.0 mm 0.00 in0.0 mm 0.00 in0.0 mm
08:52 AM 45.1°F7.3°C 39.9°F4.4°C 82% 0.2 mph ENE0.3 kmh ENE 1.1 mph1.8 kmh 30.28 in1025.4 mb 0.00 in0.0 mm 0.00 in0.0 mm 0.00 in0.0 mm
08:50 AM 45.1°F7.3°C 39.9°F4.4°C 82% 0.2 mph NE0.3 kmh NE -- 30.28 in1025.4 mb 0.00 in0.0 mm 0.00 in0.0 mm 0.00 in0.0 mm
08:47 AM 45.1°F7.3°C 39.9°F4.4°C 82% 0.2 mph NE0.3 kmh NE -- 30.27 in1025.1 mb 0.00 in0.0 mm 0.00 in0.0 mm 0.00 in0.0 mm
08:45 AM 45.1°F7.3°C 39.9°F4.4°C 82% 0.2 mph NE0.3 kmh NE -- 30.27 in1025.1 mb 0.00 in0.0 mm 0.00 in0.0 mm 0.00 in0.0 mm
08:43 AM 45.1°F7.3°C 39.9°F4.4°C 82% 0.2 mph ESE0.3 kmh ESE -- 30.27 in1025.1 mb 0.00 in0.0 mm 0.00 in0.0 mm 0.00 in0.0 mm
08:41 AM 45.3°F7.4°C 40.1°F4.5°C 82% 0.2 mph NNW0.3 kmh NNW 0.9 mph1.4 kmh 30.27 in1025.1 mb 0.00 in0.0 mm 0.00 in0.0 mm 0.00 in0.0 mm
08:39 AM 45.3°F7.4°C 40.1°F4.5°C 82% 0.2 mph E0.3 kmh E -- 30.28 in1025.4 mb 0.00 in0.0 mm 0.00 in0.0 mm 0.00 in0.0 mm
08:36 AM 45.5°F7.5°C 40.3°F4.6°C 82% 0.2 mph SSE0.3 kmh SSE -- 30.27 in1025.1 mb 0.00 in0.0 mm 0.00 in0.0 mm 0.00 in0.0 mm
08:34 AM 45.7°F7.6°C 40.5°F4.7°C 82% 0.4 mph 0.6 kmh 0.9 mph1.4 kmh 30.28 in1025.4 mb 0.00 in0.0 mm 0.00 in0.0 mm 0.00 in0.0 mm
08:32 AM 46.0°F7.8°C 40.8°F4.9°C 82% 0.7 mph NE1.1 kmh NE 0.7 mph1.1 kmh 30.28 in1025.4 mb 0.00 in0.0 mm 0.00 in0.0 mm 0.00 in0.0 mm
08:29 AM 46.6°F8.1°C 41.4°F5.2°C 82% 1.1 mph NNW1.8 kmh NNW 2.5 mph4.0 kmh 30.28 in1025.4 mb 0.00 in0.0 mm 0.00 in0.0 mm 0.00 in0.0 mm
08:27 AM 46.8°F8.2°C 41.5°F5.3°C 82% 0.4 mph E0.6 kmh E 1.3 mph2.1 kmh 30.28 in1025.4 mb 0.00 in0.0 mm 0.00 in0.0 mm 0.00 in0.0 mm
08:25 AM 47.1°F8.4°C 41.9°F5.5°C 82% 0.4 mph NNE0.6 kmh NNE -- 30.28 in1025.4 mb 0.00 in0.0 mm 0.00 in0.0 mm 0.00 in0.0 mm
08:23 AM 47.3°F8.5°C 42.1°F5.6°C 82% 0.7 mph 1.1 kmh -- 30.28 in1025.4 mb 0.00 in0.0 mm 0.00 in0.0 mm 0.00 in0.0 mm
08:20 AM 47.1°F8.4°C 41.9°F5.5°C 82% 1.3 mph NNW2.1 kmh NNW -- 30.28 in1025.4 mb 0.00 in0.0 mm 0.00 in0.0 mm 0.00 in0.0 mm
08:18 AM 47.1°F8.4°C 41.9°F5.5°C 82% 2.7 mph NE4.3 kmh NE 3.8 mph6.1 kmh 30.28 in1025.4 mb 0.00 in0.0 mm 0.00 in0.0 mm 0.00 in0.0 mm
08:16 AM 46.9°F8.3°C 41.7°F5.4°C 82% 3.6 mph NE5.8 kmh NE 4.9 mph7.9 kmh 30.28 in1025.4 mb 0.00 in0.0 mm 0.00 in0.0 mm 0.00 in0.0 mm
08:14 AM 46.8°F8.2°C 41.5°F5.3°C 82% 3.8 mph E6.1 kmh E 5.8 mph9.3 kmh 30.28 in1025.4 mb 0.00 in0.0 mm 0.00 in0.0 mm 0.00 in0.0 mm
08:12 AM 46.6°F8.1°C 41.4°F5.2°C 82% 3.8 mph E6.1 kmh E 4.7 mph7.6 kmh 30.28 in1025.4 mb 0.00 in0.0 mm 0.00 in0.0 mm 0.00 in0.0 mm
08:09 AM 46.2°F7.9°C 41.0°F5.0°C 82% 5.4 mph ESE8.7 kmh ESE 7.6 mph12.2 kmh 30.27 in1025.1 mb 0.00 in0.0 mm 0.00 in0.0 mm 0.00 in0.0 mm
08:07 AM 46.2°F7.9°C 41.0°F5.0°C 82% 5.6 mph E9.0 kmh E 8.3 mph13.4 kmh 30.28 in1025.4 mb 0.00 in0.0 mm 0.00 in0.0 mm 0.00 in0.0 mm
08:05 AM 46.0°F7.8°C 40.8°F4.9°C 82% 4.7 mph NNW7.6 kmh NNW 9.2 mph14.8 kmh 30.27 in1025.1 mb 0.00 in0.0 mm 0.00 in0.0 mm 0.00 in0.0 mm
08:03 AM 46.0°F7.8°C 41.2°F5.1°C 83% 3.6 mph ESE5.8 kmh ESE 4.9 mph7.9 kmh 30.28 in1025.4 mb 0.00 in0.0 mm 0.00 in0.0 mm 0.00 in0.0 mm
08:00 AM 45.7°F7.6°C 40.8°F4.9°C 83% 2.9 mph ESE4.7 kmh ESE 3.8 mph6.1 kmh 30.28 in1025.4 mb 0.00 in0.0 mm 0.00 in0.0 mm 0.00 in0.0 mm
07:58 AM 45.1°F7.3°C 39.9°F4.4°C 82% 2.9 mph ENE4.7 kmh ENE 4.5 mph7.2 kmh 30.27 in1025.1 mb 0.00 in0.0 mm 0.00 in0.0 mm 0.00 in0.0 mm
07:56 AM 44.8°F7.1°C 39.6°F4.2°C 82% 2.2 mph E3.5 kmh E 3.4 mph5.5 kmh 30.27 in1025.1 mb 0.00 in0.0 mm 0.00 in0.0 mm 0.00 in0.0 mm
07:54 AM 44.4°F6.9°C 39.2°F4.0°C 82% 2.2 mph ESE3.5 kmh ESE 4.9 mph7.9 kmh 30.27 in1025.1 mb 0.00 in0.0 mm 0.00 in0.0 mm 0.00 in0.0 mm
07:52 AM 43.7°F6.5°C 38.5°F3.6°C 82% 2.0 mph ENE3.2 kmh ENE 4.0 mph6.4 kmh 30.27 in1025.1 mb 0.00 in0.0 mm 0.00 in0.0 mm 0.00 in0.0 mm
07:50 AM 43.5°F6.4°C 38.5°F3.6°C 82% 1.3 mph ESE2.1 kmh ESE 2.9 mph4.7 kmh 30.27 in1025.1 mb 0.00 in0.0 mm 0.00 in0.0 mm 0.00 in0.0 mm
07:47 AM 43.5°F6.4°C 38.5°F3.6°C 82% 0.7 mph ESE1.1 kmh ESE 1.6 mph2.6 kmh 30.27 in1025.1 mb 0.00 in0.0 mm 0.00 in0.0 mm 0.00 in0.0 mm
07:45 AM 43.9°F6.6°C 38.7°F3.7°C 82% 0.4 mph NE0.6 kmh NE -- 30.27 in1025.1 mb 0.00 in0.0 mm 0.00 in0.0 mm 0.00 in0.0 mm
07:43 AM 43.9°F6.6°C 38.7°F3.7°C 82% 0.9 mph NE1.4 kmh NE 1.3 mph2.1 kmh 30.26 in1024.7 mb 0.00 in0.0 mm 0.00 in0.0 mm 0.00 in0.0 mm
07:41 AM 44.2°F6.8°C 39.0°F3.9°C 82% 0.9 mph NE1.4 kmh NE 1.3 mph2.1 kmh 30.27 in1025.1 mb 0.00 in0.0 mm 0.00 in0.0 mm 0.00 in0.0 mm
07:39 AM 44.2°F6.8°C 39.0°F3.9°C 82% 1.3 mph ENE2.1 kmh ENE 2.9 mph4.7 kmh 30.27 in1025.1 mb 0.00 in0.0 mm 0.00 in0.0 mm 0.00 in0.0 mm
07:36 AM 44.4°F6.9°C 39.2°F4.0°C 82% 1.1 mph SE1.8 kmh SE 3.4 mph5.5 kmh 30.26 in1024.7 mb 0.00 in0.0 mm 0.00 in0.0 mm 0.00 in0.0 mm
07:34 AM 44.4°F6.9°C 39.0°F3.9°C 81% 1.1 mph NNE1.8 kmh NNE 2.2 mph3.5 kmh 30.26 in1024.7 mb 0.00 in0.0 mm 0.00 in0.0 mm 0.00 in0.0 mm
07:32 AM 44.6°F7.0°C 39.4°F4.1°C 82% 1.1 mph ENE1.8 kmh ENE 2.2 mph3.5 kmh 30.26 in1024.7 mb 0.00 in0.0 mm 0.00 in0.0 mm 0.00 in0.0 mm
07:30 AM 44.4°F6.9°C 39.0°F3.9°C 81% 1.1 mph ESE1.8 kmh ESE 1.8 mph2.9 kmh 30.26 in1024.7 mb 0.00 in0.0 mm 0.00 in0.0 mm 0.00 in0.0 mm
07:28 AM 44.4°F6.9°C 39.2°F4.0°C 82% 1.3 mph ESE2.1 kmh ESE 4.0 mph6.4 kmh 30.25 in1024.4 mb 0.00 in0.0 mm 0.00 in0.0 mm 0.00 in0.0 mm
07:25 AM 44.4°F6.9°C 39.0°F3.9°C 81% 1.6 mph ENE2.6 kmh ENE 0.9 mph1.4 kmh 30.26 in1024.7 mb 0.00 in0.0 mm 0.00 in0.0 mm 0.00 in0.0 mm
07:23 AM 44.4°F6.9°C 39.0°F3.9°C 81% 2.7 mph E4.3 kmh E 2.5 mph4.0 kmh 30.25 in1024.4 mb 0.00 in0.0 mm 0.00 in0.0 mm 0.00 in0.0 mm
07:21 AM 44.4°F6.9°C 39.0°F3.9°C 81% 2.9 mph ESE4.7 kmh ESE 3.6 mph5.8 kmh 30.25 in1024.4 mb 0.00 in0.0 mm 0.00 in0.0 mm 0.00 in0.0 mm
07:19 AM 44.1°F6.7°C 38.7°F3.7°C 81% 3.1 mph ENE5.0 kmh ENE 4.0 mph6.4 kmh 30.25 in1024.4 mb 0.00 in0.0 mm 0.00 in0.0 mm 0.00 in0.0 mm
07:17 AM 43.9°F6.6°C 38.5°F3.6°C 81% 2.9 mph E4.7 kmh E 3.8 mph6.1 kmh 30.25 in1024.4 mb 0.00 in0.0 mm 0.00 in0.0 mm 0.00 in0.0 mm
07:15 AM 43.5°F6.4°C 38.1°F3.4°C 81% 2.5 mph ESE4.0 kmh ESE 4.0 mph6.4 kmh 30.25 in1024.4 mb 0.00 in0.0 mm 0.00 in0.0 mm 0.00 in0.0 mm
07:12 AM 43.0°F6.1°C 37.6°F3.1°C 81% 1.1 mph ESE1.8 kmh ESE 2.5 mph4.0 kmh 30.25 in1024.4 mb 0.00 in0.0 mm 0.00 in0.0 mm 0.00 in0.0 mm
07:10 AM 43.2°F6.2°C 37.8°F3.2°C 81% 0.4 mph SE0.6 kmh SE 0.9 mph1.4 kmh 30.25 in1024.4 mb 0.00 in0.0 mm 0.00 in0.0 mm 0.00 in0.0 mm
07:08 AM 43.5°F6.4°C 38.1°F3.4°C 81% 0.4 mph SSE0.6 kmh SSE -- 30.25 in1024.4 mb 0.00 in0.0 mm 0.00 in0.0 mm 0.00 in0.0 mm
07:06 AM 43.9°F6.6°C 38.5°F3.6°C 81% 0.7 mph SW1.1 kmh SW -- 30.25 in1024.4 mb 0.00 in0.0 mm 0.00 in0.0 mm 0.00 in0.0 mm
07:04 AM 44.4°F6.9°C 39.0°F3.9°C 81% 1.3 mph W2.1 kmh W 1.8 mph2.9 kmh 30.25 in1024.4 mb 0.00 in0.0 mm 0.00 in0.0 mm 0.00 in0.0 mm
07:00 AM 44.8°F7.1°C 39.4°F4.1°C 81% 2.7 mph ESE4.3 kmh ESE 3.8 mph6.1 kmh 30.24 in1024.0 mb 0.00 in0.0 mm 0.00 in0.0 mm 0.00 in0.0 mm
06:57 AM 44.4°F6.9°C 39.0°F3.9°C 81% 2.2 mph ENE3.5 kmh ENE 3.8 mph6.1 kmh 30.24 in1024.0 mb 0.00 in0.0 mm 0.00 in0.0 mm 0.00 in0.0 mm
06:55 AM 44.4°F6.9°C 39.0°F3.9°C 81% 1.3 mph E2.1 kmh E 0.9 mph1.4 kmh 30.24 in1024.0 mb 0.00 in0.0 mm 0.00 in0.0 mm 0.00 in0.0 mm
06:53 AM 45.0°F7.2°C 39.6°F4.2°C 81% 2.7 mph NNE4.3 kmh NNE 2.7 mph4.3 kmh 30.24 in1024.0 mb 0.00 in0.0 mm 0.00 in0.0 mm 0.00 in0.0 mm
06:50 AM 44.8°F7.1°C 39.6°F4.2°C 82% 4.7 mph E7.6 kmh E 5.4 mph8.7 kmh 30.24 in1024.0 mb 0.00 in0.0 mm 0.00 in0.0 mm 0.00 in0.0 mm
06:48 AM 44.4°F6.9°C 39.2°F4.0°C 82% 4.7 mph ESE7.6 kmh ESE 5.8 mph9.3 kmh 30.24 in1024.0 mb 0.00 in0.0 mm 0.00 in0.0 mm 0.00 in0.0 mm
06:46 AM 43.5°F6.4°C 38.5°F3.6°C 82% 4.3 mph ESE6.9 kmh ESE 5.8 mph9.3 kmh 30.24 in1024.0 mb 0.00 in0.0 mm 0.00 in0.0 mm 0.00 in0.0 mm
06:44 AM 42.6°F5.9°C 37.2°F2.9°C 81% 3.1 mph E5.0 kmh E 4.0 mph6.4 kmh 30.24 in1024.0 mb 0.00 in0.0 mm 0.00 in0.0 mm 0.00 in0.0 mm
06:41 AM 42.4°F5.8°C 37.0°F2.8°C 81% 2.9 mph ESE4.7 kmh ESE 3.8 mph6.1 kmh 30.24 in1024.0 mb 0.00 in0.0 mm 0.00 in0.0 mm 0.00 in0.0 mm
06:39 AM 42.4°F5.8°C 37.0°F2.8°C 81% 2.9 mph ESE4.7 kmh ESE 3.6 mph5.8 kmh 30.24 in1024.0 mb 0.00 in0.0 mm 0.00 in0.0 mm 0.00 in0.0 mm
06:37 AM 43.0°F6.1°C 37.6°F3.1°C 81% 2.5 mph SE4.0 kmh SE 2.2 mph3.5 kmh 30.24 in1024.0 mb 0.00 in0.0 mm 0.00 in0.0 mm 0.00 in0.0 mm
06:35 AM 43.2°F6.2°C 37.8°F3.2°C 81% 3.4 mph E5.5 kmh E 3.6 mph5.8 kmh 30.24 in1024.0 mb 0.00 in0.0 mm 0.00 in0.0 mm 0.00 in0.0 mm
06:33 AM 43.2°F6.2°C 37.8°F3.2°C 81% 4.0 mph ESE6.4 kmh ESE 3.1 mph5.0 kmh 30.24 in1024.0 mb 0.00 in0.0 mm 0.00 in0.0 mm 0.00 in0.0 mm
06:31 AM 43.2°F6.2°C 37.8°F3.2°C 81% 5.4 mph ESE8.7 kmh ESE 5.4 mph8.7 kmh 30.24 in1024.0 mb 0.00 in0.0 mm 0.00 in0.0 mm 0.00 in0.0 mm
06:29 AM 43.0°F6.1°C 37.6°F3.1°C 81% 6.3 mph ESE10.1 kmh ESE 6.5 mph10.5 kmh 30.24 in1024.0 mb 0.00 in0.0 mm 0.00 in0.0 mm 0.00 in0.0 mm
06:27 AM 43.0°F6.1°C 37.6°F3.1°C 81% 6.5 mph SE10.5 kmh SE 7.6 mph12.2 kmh 30.24 in1024.0 mb 0.00 in0.0 mm 0.00 in0.0 mm 0.00 in0.0 mm
06:24 AM 43.0°F6.1°C 37.6°F3.1°C 81% 6.3 mph SE10.1 kmh SE 8.9 mph14.3 kmh 30.24 in1024.0 mb 0.00 in0.0 mm 0.00 in0.0 mm 0.00 in0.0 mm
06:22 AM 43.2°F6.2°C 37.8°F3.2°C 81% 5.1 mph ESE8.2 kmh ESE 6.7 mph10.8 kmh 30.24 in1024.0 mb 0.00 in0.0 mm 0.00 in0.0 mm 0.00 in0.0 mm
06:20 AM 43.0°F6.1°C 37.6°F3.1°C 81% 3.6 mph SE5.8 kmh SE 6.3 mph10.1 kmh 30.24 in1024.0 mb 0.00 in0.0 mm 0.00 in0.0 mm 0.00 in0.0 mm
06:18 AM 42.1°F5.6°C 36.3°F2.4°C 80% 2.0 mph SE3.2 kmh SE 5.8 mph9.3 kmh 30.24 in1024.0 mb 0.00 in0.0 mm 0.00 in0.0 mm 0.00 in0.0 mm
06:16 AM 42.1°F5.6°C 36.3°F2.4°C 80% 0.4 mph SE0.6 kmh SE 0.9 mph1.4 kmh 30.24 in1024.0 mb 0.00 in0.0 mm 0.00 in0.0 mm 0.00 in0.0 mm
06:13 AM 42.3°F5.7°C 36.1°F2.3°C 79% 0.4 mph SSE0.6 kmh SSE 0.7 mph1.1 kmh 30.25 in1024.4 mb 0.00 in0.0 mm 0.00 in0.0 mm 0.00 in0.0 mm
06:11 AM 42.4°F5.8°C 36.3°F2.4°C 79% 0.7 mph ESE1.1 kmh ESE 0.7 mph1.1 kmh 30.25 in1024.4 mb 0.00 in0.0 mm 0.00 in0.0 mm 0.00 in0.0 mm
06:09 AM 42.6°F5.9°C 36.5°F2.5°C 79% 1.1 mph ESE1.8 kmh ESE -- 30.25 in1024.4 mb 0.00 in0.0 mm 0.00 in0.0 mm 0.00 in0.0 mm
06:07 AM 43.0°F6.1°C 36.9°F2.7°C 79% 2.0 mph E3.2 kmh E 1.8 mph2.9 kmh 30.25 in1024.4 mb 0.00 in0.0 mm 0.00 in0.0 mm 0.00 in0.0 mm
06:05 AM 43.3°F6.3°C 37.2°F2.9°C 79% 3.4 mph ESE5.5 kmh ESE 3.4 mph5.5 kmh 30.25 in1024.4 mb 0.00 in0.0 mm 0.00 in0.0 mm 0.00 in0.0 mm
06:03 AM 43.5°F6.4°C 37.8°F3.2°C 80% 4.5 mph ESE7.2 kmh ESE 5.1 mph8.2 kmh 30.25 in1024.4 mb 0.00 in0.0 mm 0.00 in0.0 mm 0.00 in0.0 mm
06:00 AM 43.5°F6.4°C 37.8°F3.2°C 80% 4.7 mph ESE7.6 kmh ESE 5.8 mph9.3 kmh 30.25 in1024.4 mb 0.00 in0.0 mm 0.00 in0.0 mm 0.00 in0.0 mm
05:58 AM 43.5°F6.4°C 37.8°F3.2°C 80% 4.3 mph ESE6.9 kmh ESE 5.8 mph9.3 kmh 30.25 in1024.4 mb 0.00 in0.0 mm 0.00 in0.0 mm 0.00 in0.0 mm
05:56 AM 43.5°F6.4°C 37.8°F3.2°C 80% 4.0 mph ESE6.4 kmh ESE 5.8 mph9.3 kmh 30.25 in1024.4 mb 0.00 in0.0 mm 0.00 in0.0 mm 0.00 in0.0 mm
05:54 AM 43.3°F6.3°C 37.6°F3.1°C 80% 2.9 mph ESE4.7 kmh ESE 3.8 mph6.1 kmh 30.24 in1024.0 mb 0.00 in0.0 mm 0.00 in0.0 mm 0.00 in0.0 mm
05:52 AM 43.3°F6.3°C 37.2°F2.9°C 79% 2.7 mph SE4.3 kmh SE 2.9 mph4.7 kmh 30.25 in1024.4 mb 0.00 in0.0 mm 0.00 in0.0 mm 0.00 in0.0 mm
05:50 AM 43.3°F6.3°C 37.2°F2.9°C 79% 3.1 mph ESE5.0 kmh ESE 4.7 mph7.6 kmh 30.24 in1024.0 mb 0.00 in0.0 mm 0.00 in0.0 mm 0.00 in0.0 mm
05:47 AM 43.2°F6.2°C 37.0°F2.8°C 79% 2.7 mph ESE4.3 kmh ESE 4.5 mph7.2 kmh 30.25 in1024.4 mb 0.00 in0.0 mm 0.00 in0.0 mm 0.00 in0.0 mm
05:45 AM 43.3°F6.3°C 36.9°F2.7°C 78% 1.6 mph SE2.6 kmh SE 3.4 mph5.5 kmh 30.25 in1024.4 mb 0.00 in0.0 mm 0.00 in0.0 mm 0.00 in0.0 mm
05:43 AM 43.3°F6.3°C 36.9°F2.7°C 78% 0.4 mph SE0.6 kmh SE 1.6 mph2.6 kmh 30.25 in1024.4 mb 0.00 in0.0 mm 0.00 in0.0 mm 0.00 in0.0 mm
05:40 AM 43.3°F6.3°C 36.9°F2.7°C 78% 0.2 mph SSE0.3 kmh SSE -- 30.25 in1024.4 mb 0.00 in0.0 mm 0.00 in0.0 mm 0.00 in0.0 mm
05:38 AM 43.3°F6.3°C 36.9°F2.7°C 78% 0.2 mph SSE0.3 kmh SSE -- 30.25 in1024.4 mb 0.00 in0.0 mm 0.00 in0.0 mm 0.00 in0.0 mm
05:36 AM 43.2°F6.2°C 36.7°F2.6°C 78% 0.2 mph SE0.3 kmh SE 0.9 mph1.4 kmh 30.25 in1024.4 mb 0.00 in0.0 mm 0.00 in0.0 mm 0.00 in0.0 mm
05:34 AM 43.3°F6.3°C 36.9°F2.7°C 78% 0.2 mph ESE0.3 kmh ESE -- 30.25 in1024.4 mb 0.00 in0.0 mm 0.00 in0.0 mm 0.00 in0.0 mm
05:32 AM 43.3°F6.3°C 36.9°F2.7°C 78% 0.2 mph SE0.3 kmh SE -- 30.25 in1024.4 mb 0.00 in0.0 mm 0.00 in0.0 mm 0.00 in0.0 mm
05:30 AM 43.5°F6.4°C 37.0°F2.8°C 78% 0.2 mph SE0.3 kmh SE -- 30.24 in1024.0 mb 0.00 in0.0 mm 0.00 in0.0 mm 0.00 in0.0 mm
05:27 AM 43.5°F6.4°C 37.0°F2.8°C 78% 0.2 mph NE0.3 kmh NE -- 30.25 in1024.4 mb 0.00 in0.0 mm 0.00 in0.0 mm 0.00 in0.0 mm
05:25 AM 43.7°F6.5°C 37.2°F2.9°C 78% 0.4 mph NE0.6 kmh NE -- 30.24 in1024.0 mb 0.00 in0.0 mm 0.00 in0.0 mm 0.00 in0.0 mm
05:23 AM 44.1°F6.7°C 37.6°F3.1°C 78% 0.4 mph 0.6 kmh -- 30.24 in1024.0 mb 0.00 in0.0 mm 0.00 in0.0 mm 0.00 in0.0 mm
05:21 AM 44.4°F6.9°C 37.9°F3.3°C 78% 0.9 mph 1.4 kmh 1.3 mph2.1 kmh 30.24 in1024.0 mb 0.00 in0.0 mm 0.00 in0.0 mm 0.00 in0.0 mm
05:19 AM 45.0°F7.2°C 38.8°F3.8°C 79% 1.1 mph SW1.8 kmh SW 1.1 mph1.8 kmh 30.24 in1024.0 mb 0.00 in0.0 mm 0.00 in0.0 mm 0.00 in0.0 mm
05:16 AM 45.0°F7.2°C 38.8°F3.8°C 79% 1.8 mph ESE2.9 kmh ESE 2.0 mph3.2 kmh 30.24 in1024.0 mb 0.00 in0.0 mm 0.00 in0.0 mm 0.00 in0.0 mm
05:14 AM 45.0°F7.2°C 38.8°F3.8°C 79% 2.2 mph S3.5 kmh S 4.0 mph6.4 kmh 30.24 in1024.0 mb 0.00 in0.0 mm 0.00 in0.0 mm 0.00 in0.0 mm
05:12 AM 45.0°F7.2°C 38.8°F3.8°C 79% 2.5 mph S4.0 kmh S 3.4 mph5.5 kmh 30.25 in1024.4 mb 0.00 in0.0 mm 0.00 in0.0 mm 0.00 in0.0 mm
05:10 AM 44.8°F7.1°C 38.7°F3.7°C 79% 2.7 mph S4.3 kmh S 4.5 mph7.2 kmh 30.24 in1024.0 mb 0.00 in0.0 mm 0.00 in0.0 mm 0.00 in0.0 mm
05:08 AM 44.6°F7.0°C 38.5°F3.6°C 79% 2.5 mph SSE4.0 kmh SSE 2.9 mph4.7 kmh 30.24 in1024.0 mb 0.00 in0.0 mm 0.00 in0.0 mm 0.00 in0.0 mm
05:06 AM 44.4°F6.9°C 38.3°F3.5°C 79% 2.7 mph S4.3 kmh S 3.1 mph5.0 kmh 30.24 in1024.0 mb 0.00 in0.0 mm 0.00 in0.0 mm 0.00 in0.0 mm
05:04 AM 44.4°F6.9°C 38.3°F3.5°C 79% 2.7 mph ESE4.3 kmh ESE 3.4 mph5.5 kmh 30.24 in1024.0 mb 0.00 in0.0 mm 0.00 in0.0 mm 0.00 in0.0 mm
05:01 AM 44.4°F6.9°C 38.3°F3.5°C 79% 2.7 mph SSE4.3 kmh SSE 2.7 mph4.3 kmh 30.25 in1024.4 mb 0.00 in0.0 mm 0.00 in0.0 mm 0.00 in0.0 mm
04:59 AM 44.4°F6.9°C 38.3°F3.5°C 79% 3.1 mph SSE5.0 kmh SSE 3.1 mph5.0 kmh 30.24 in1024.0 mb 0.00 in0.0 mm 0.00 in0.0 mm 0.00 in0.0 mm
04:57 AM 44.4°F6.9°C 38.3°F3.5°C 79% 3.6 mph SE5.8 kmh SE 3.8 mph6.1 kmh 30.24 in1024.0 mb 0.00 in0.0 mm 0.00 in0.0 mm 0.00 in0.0 mm
04:55 AM 44.4°F6.9°C 38.3°F3.5°C 79% 3.8 mph SE6.1 kmh SE 5.4 mph8.7 kmh 30.24 in1024.0 mb 0.00 in0.0 mm 0.00 in0.0 mm 0.00 in0.0 mm
04:53 AM 44.2°F6.8°C 38.5°F3.6°C 80% 4.3 mph SE6.9 kmh SE 6.0 mph9.7 kmh 30.25 in1024.4 mb 0.00 in0.0 mm 0.00 in0.0 mm 0.00 in0.0 mm
04:51 AM 44.2°F6.8°C 38.5°F3.6°C 80% 3.6 mph ESE5.8 kmh ESE 3.8 mph6.1 kmh 30.25 in1024.4 mb 0.00 in0.0 mm 0.00 in0.0 mm 0.00 in0.0 mm
04:48 AM 44.2°F6.8°C 38.5°F3.6°C 80% 3.4 mph SE5.5 kmh SE 5.1 mph8.2 kmh 30.25 in1024.4 mb 0.00 in0.0 mm 0.00 in0.0 mm 0.00 in0.0 mm
04:46 AM 44.2°F6.8°C 38.5°F3.6°C 80% 3.1 mph S5.0 kmh S 3.4 mph5.5 kmh 30.25 in1024.4 mb 0.00 in0.0 mm 0.00 in0.0 mm 0.00 in0.0 mm
04:44 AM 44.1°F6.7°C 38.3°F3.5°C 80% 3.6 mph ESE5.8 kmh ESE 3.8 mph6.1 kmh 30.25 in1024.4 mb 0.00 in0.0 mm 0.00 in0.0 mm 0.00 in0.0 mm
04:42 AM 43.9°F6.6°C 38.1°F3.4°C 80% 3.6 mph ESE5.8 kmh ESE 5.1 mph8.2 kmh 30.25 in1024.4 mb 0.00 in0.0 mm 0.00 in0.0 mm 0.00 in0.0 mm
04:40 AM 43.9°F6.6°C 38.1°F3.4°C 80% 3.6 mph SE5.8 kmh SE 4.0 mph6.4 kmh 30.25 in1024.4 mb 0.00 in0.0 mm 0.00 in0.0 mm 0.00 in0.0 mm
04:37 AM 43.9°F6.6°C 38.1°F3.4°C 80% 3.6 mph SE5.8 kmh SE 4.7 mph7.6 kmh 30.25 in1024.4 mb 0.00 in0.0 mm 0.00 in0.0 mm 0.00 in0.0 mm
04:35 AM 43.9°F6.6°C 38.1°F3.4°C 80% 3.4 mph ENE5.5 kmh ENE 5.4 mph8.7 kmh 30.25 in1024.4 mb 0.00 in0.0 mm 0.00 in0.0 mm 0.00 in0.0 mm
04:33 AM 44.1°F6.7°C 38.3°F3.5°C 80% 2.2 mph SE3.5 kmh SE 3.1 mph5.0 kmh 30.25 in1024.4 mb 0.00 in0.0 mm 0.00 in0.0 mm 0.00 in0.0 mm
04:31 AM 44.1°F6.7°C 38.3°F3.5°C 80% 2.0 mph ESE3.2 kmh ESE 2.2 mph3.5 kmh 30.25 in1024.4 mb 0.00 in0.0 mm 0.00 in0.0 mm 0.00 in0.0 mm
04:28 AM 44.1°F6.7°C 38.3°F3.5°C 80% 2.5 mph SE4.0 kmh SE 2.9 mph4.7 kmh 30.25 in1024.4 mb 0.00 in0.0 mm 0.00 in0.0 mm 0.00 in0.0 mm
04:26 AM 44.1°F6.7°C 38.3°F3.5°C 80% 2.9 mph SE4.7 kmh SE 3.1 mph5.0 kmh 30.24 in1024.0 mb 0.00 in0.0 mm 0.00 in0.0 mm 0.00 in0.0 mm
04:24 AM 43.9°F6.6°C 38.1°F3.4°C 80% 3.1 mph ESE5.0 kmh ESE 3.1 mph5.0 kmh 30.25 in1024.4 mb 0.00 in0.0 mm 0.00 in0.0 mm 0.00 in0.0 mm
04:22 AM 43.9°F6.6°C 38.1°F3.4°C 80% 4.0 mph ESE6.4 kmh ESE 5.1 mph8.2 kmh 30.24 in1024.0 mb 0.00 in0.0 mm 0.00 in0.0 mm 0.00 in0.0 mm
04:19 AM 44.1°F6.7°C 38.3°F3.5°C 80% 3.6 mph SE5.8 kmh SE 4.9 mph7.9 kmh 30.25 in1024.4 mb 0.00 in0.0 mm 0.00 in0.0 mm 0.00 in0.0 mm
04:17 AM 44.1°F6.7°C 38.7°F3.7°C 81% 2.9 mph SE4.7 kmh SE 3.8 mph6.1 kmh 30.25 in1024.4 mb 0.00 in0.0 mm 0.00 in0.0 mm 0.00 in0.0 mm
04:15 AM 43.7°F6.5°C 38.3°F3.5°C 81% 2.9 mph SE4.7 kmh SE 4.3 mph6.9 kmh 30.25 in1024.4 mb 0.00 in0.0 mm 0.00 in0.0 mm 0.00 in0.0 mm
04:13 AM 43.5°F6.4°C 38.1°F3.4°C 81% 2.2 mph SE3.5 kmh SE 4.0 mph6.4 kmh 30.25 in1024.4 mb 0.00 in0.0 mm 0.00 in0.0 mm 0.00 in0.0 mm
04:10 AM 43.3°F6.3°C 37.9°F3.3°C 81% 1.8 mph ESE2.9 kmh ESE 2.5 mph4.0 kmh 30.25 in1024.4 mb 0.00 in0.0 mm 0.00 in0.0 mm 0.00 in0.0 mm
04:08 AM 43.5°F6.4°C 38.1°F3.4°C 81% 2.0 mph SE3.2 kmh SE 3.1 mph5.0 kmh 30.24 in1024.0 mb 0.00 in0.0 mm 0.00 in0.0 mm 0.00 in0.0 mm
04:06 AM 43.5°F6.4°C 38.1°F3.4°C 81% 2.0 mph SE3.2 kmh SE 2.9 mph4.7 kmh 30.24 in1024.0 mb 0.00 in0.0 mm 0.00 in0.0 mm 0.00 in0.0 mm
04:04 AM 43.5°F6.4°C 38.1°F3.4°C 81% 1.6 mph SSE2.6 kmh SSE 2.0 mph3.2 kmh 30.24 in1024.0 mb 0.00 in0.0 mm 0.00 in0.0 mm 0.00 in0.0 mm
04:02 AM 43.5°F6.4°C 38.1°F3.4°C 81% 2.0 mph SSE3.2 kmh SSE 3.6 mph5.8 kmh 30.24 in1024.0 mb 0.00 in0.0 mm 0.00 in0.0 mm 0.00 in0.0 mm
03:59 AM 43.5°F6.4°C 38.1°F3.4°C 81% 1.3 mph SSE2.1 kmh SSE 2.9 mph4.7 kmh 30.24 in1024.0 mb 0.00 in0.0 mm 0.00 in0.0 mm 0.00 in0.0 mm
03:57 AM 43.3°F6.3°C 37.9°F3.3°C 81% 1.3 mph SSW2.1 kmh SSW 1.6 mph2.6 kmh 30.25 in1024.4 mb 0.00 in0.0 mm 0.00 in0.0 mm 0.00 in0.0 mm
03:55 AM 43.2°F6.2°C 37.8°F3.2°C 81% 1.8 mph S2.9 kmh S 2.0 mph3.2 kmh 30.25 in1024.4 mb 0.00 in0.0 mm 0.00 in0.0 mm 0.00 in0.0 mm
03:53 AM 43.0°F6.1°C 37.2°F2.9°C 80% 2.0 mph SSE3.2 kmh SSE 2.7 mph4.3 kmh 30.24 in1024.0 mb 0.00 in0.0 mm 0.00 in0.0 mm 0.00 in0.0 mm
03:51 AM 43.0°F6.1°C 37.2°F2.9°C 80% 1.8 mph SSE2.9 kmh SSE 2.9 mph4.7 kmh 30.25 in1024.4 mb 0.00 in0.0 mm 0.00 in0.0 mm 0.00 in0.0 mm
03:49 AM 43.2°F6.2°C 37.4°F3.0°C 80% 1.3 mph S2.1 kmh S 1.6 mph2.6 kmh 30.25 in1024.4 mb 0.00 in0.0 mm 0.00 in0.0 mm 0.00 in0.0 mm
03:47 AM 43.3°F6.3°C 37.6°F3.1°C 80% 1.6 mph SSE2.6 kmh SSE 2.7 mph4.3 kmh 30.25 in1024.4 mb 0.00 in0.0 mm 0.00 in0.0 mm 0.00 in0.0 mm
03:44 AM 43.3°F6.3°C 37.6°F3.1°C 80% 1.3 mph SSE2.1 kmh SSE 2.7 mph4.3 kmh 30.25 in1024.4 mb 0.00 in0.0 mm 0.00 in0.0 mm 0.00 in0.0 mm
03:42 AM 43.3°F6.3°C 37.6°F3.1°C 80% 1.3 mph SSE2.1 kmh SSE 2.2 mph3.5 kmh 30.25 in1024.4 mb 0.00 in0.0 mm 0.00 in0.0 mm 0.00 in0.0 mm
03:40 AM 43.5°F6.4°C 37.4°F3.0°C 79% 0.9 mph SSE1.4 kmh SSE 1.8 mph2.9 kmh 30.25 in1024.4 mb 0.00 in0.0 mm 0.00 in0.0 mm 0.00 in0.0 mm
03:38 AM 43.5°F6.4°C 37.4°F3.0°C 79% 0.4 mph SSE0.6 kmh SSE 1.1 mph1.8 kmh 30.25 in1024.4 mb 0.00 in0.0 mm 0.00 in0.0 mm 0.00 in0.0 mm
03:35 AM 43.5°F6.4°C 37.4°F3.0°C 79% 0.4 mph SSE0.6 kmh SSE 0.9 mph1.4 kmh 30.25 in1024.4 mb 0.00 in0.0 mm 0.00 in0.0 mm 0.00 in0.0 mm
03:33 AM 43.5°F6.4°C 37.4°F3.0°C 79% 0.2 mph SSE0.3 kmh SSE 0.7 mph1.1 kmh 30.25 in1024.4 mb 0.00 in0.0 mm 0.00 in0.0 mm 0.00 in0.0 mm
03:31 AM 43.5°F6.4°C 37.4°F3.0°C 79% 0.2 mph SSE0.3 kmh SSE 0.7 mph1.1 kmh 30.25 in1024.4 mb 0.00 in0.0 mm 0.00 in0.0 mm 0.00 in0.0 mm
03:29 AM 43.5°F6.4°C 37.4°F3.0°C 79% 0.2 mph WSW0.3 kmh WSW -- 30.25 in1024.4 mb 0.00 in0.0 mm 0.00 in0.0 mm 0.00 in0.0 mm
03:26 AM 43.7°F6.5°C 37.6°F3.1°C 79% 0.2 mph NNW0.3 kmh NNW -- 30.25 in1024.4 mb 0.00 in0.0 mm 0.00 in0.0 mm 0.00 in0.0 mm
03:24 AM 43.9°F6.6°C 37.8°F3.2°C 79% 0.2 mph 0.3 kmh -- 30.25 in1024.4 mb 0.00 in0.0 mm 0.00 in0.0 mm 0.00 in0.0 mm
03:22 AM 43.9°F6.6°C 37.8°F3.2°C 79% 0.2 mph SSE0.3 kmh SSE -- 30.25 in1024.4 mb 0.00 in0.0 mm 0.00 in0.0 mm 0.00 in0.0 mm
03:20 AM 43.9°F6.6°C 37.8°F3.2°C 79% 0.2 mph WSW0.3 kmh WSW -- 30.25 in1024.4 mb 0.00 in0.0 mm 0.00 in0.0 mm 0.00 in0.0 mm
03:18 AM 43.9°F6.6°C 37.8°F3.2°C 79% 0.2 mph S0.3 kmh S -- 30.25 in1024.4 mb 0.00 in0.0 mm 0.00 in0.0 mm 0.00 in0.0 mm
03:15 AM 44.1°F6.7°C 37.6°F3.1°C 78% 0.2 mph SE0.3 kmh SE -- 30.25 in1024.4 mb 0.00 in0.0 mm 0.00 in0.0 mm 0.00 in0.0 mm
03:13 AM 44.2°F6.8°C 38.1°F3.4°C 79% 0.2 mph S0.3 kmh S 0.9 mph1.4 kmh 30.25 in1024.4 mb 0.00 in0.0 mm 0.00 in0.0 mm 0.00 in0.0 mm
03:11 AM 44.2°F6.8°C 38.1°F3.4°C 79% 0.2 mph SSE0.3 kmh SSE -- 30.25 in1024.4 mb 0.00 in0.0 mm 0.00 in0.0 mm 0.00 in0.0 mm
03:09 AM 44.4°F6.9°C 38.3°F3.5°C 79% 0.4 mph S0.6 kmh S 1.1 mph1.8 kmh 30.25 in1024.4 mb 0.00 in0.0 mm 0.00 in0.0 mm 0.00 in0.0 mm
03:06 AM 44.4°F6.9°C 38.3°F3.5°C 79% 0.7 mph SE1.1 kmh SE 1.3 mph2.1 kmh 30.25 in1024.4 mb 0.00 in0.0 mm 0.00 in0.0 mm 0.00 in0.0 mm
03:04 AM 44.4°F6.9°C 38.3°F3.5°C 79% 0.7 mph SSE1.1 kmh SSE 1.3 mph2.1 kmh 30.25 in1024.4 mb 0.00 in0.0 mm 0.00 in0.0 mm 0.00 in0.0 mm
03:02 AM 44.6°F7.0°C 38.5°F3.6°C 79% 0.7 mph SE1.1 kmh SE 1.3 mph2.1 kmh 30.25 in1024.4 mb 0.00 in0.0 mm 0.00 in0.0 mm 0.00 in0.0 mm
02:59 AM 44.6°F7.0°C 38.1°F3.4°C 78% 0.7 mph SSE1.1 kmh SSE 1.3 mph2.1 kmh 30.24 in1024.0 mb 0.00 in0.0 mm 0.00 in0.0 mm 0.00 in0.0 mm
02:57 AM 44.6°F7.0°C 38.1°F3.4°C 78% 0.2 mph SSE0.3 kmh SSE 0.9 mph1.4 kmh 30.25 in1024.4 mb 0.00 in0.0 mm 0.00 in0.0 mm 0.00 in0.0 mm
02:55 AM 44.4°F6.9°C 37.9°F3.3°C 78% 0.2 mph SSE0.3 kmh SSE -- 30.25 in1024.4 mb 0.00 in0.0 mm 0.00 in0.0 mm 0.00 in0.0 mm
02:53 AM 44.4°F6.9°C 37.9°F3.3°C 78% 0.2 mph SE0.3 kmh SE 0.7 mph1.1 kmh 30.26 in1024.7 mb 0.00 in0.0 mm 0.00 in0.0 mm 0.00 in0.0 mm
02:51 AM 44.4°F6.9°C 37.9°F3.3°C 78% 0.2 mph SSE0.3 kmh SSE -- 30.26 in1024.7 mb 0.00 in0.0 mm 0.00 in0.0 mm 0.00 in0.0 mm
02:49 AM 44.4°F6.9°C 37.9°F3.3°C 78% 0.2 mph SSE0.3 kmh SSE -- 30.25 in1024.4 mb 0.00 in0.0 mm 0.00 in0.0 mm 0.00 in0.0 mm
02:47 AM 44.4°F6.9°C 37.9°F3.3°C 78% 0.2 mph SSW0.3 kmh SSW -- 30.25 in1024.4 mb 0.00 in0.0 mm 0.00 in0.0 mm 0.00 in0.0 mm
02:45 AM 44.4°F6.9°C 37.9°F3.3°C 78% 0.2 mph SSW0.3 kmh SSW -- 30.25 in1024.4 mb 0.00 in0.0 mm 0.00 in0.0 mm 0.00 in0.0 mm
02:42 AM 44.4°F6.9°C 37.9°F3.3°C 78% 0.2 mph S0.3 kmh S -- 30.25 in1024.4 mb 0.00 in0.0 mm 0.00 in0.0 mm 0.00 in0.0 mm
02:40 AM 44.6°F7.0°C 38.1°F3.4°C 78% 0.2 mph SSE0.3 kmh SSE -- 30.25 in1024.4 mb 0.00 in0.0 mm 0.00 in0.0 mm 0.00 in0.0 mm
02:38 AM 44.8°F7.1°C 38.3°F3.5°C 78% 0.2 mph NE0.3 kmh NE -- 30.25 in1024.4 mb 0.00 in0.0 mm 0.00 in0.0 mm 0.00 in0.0 mm
02:36 AM 45.1°F7.3°C 38.7°F3.7°C 78% 0.4 mph NE0.6 kmh NE -- 30.25 in1024.4 mb 0.00 in0.0 mm 0.00 in0.0 mm 0.00 in0.0 mm
02:34 AM 45.3°F7.4°C 38.8°F3.8°C 78% 0.7 mph WNW1.1 kmh WNW 1.1 mph1.8 kmh 30.25 in1024.4 mb 0.00 in0.0 mm 0.00 in0.0 mm 0.00 in0.0 mm
02:31 AM 45.5°F7.5°C 39.0°F3.9°C 78% 0.9 mph SE1.4 kmh SE -- 30.26 in1024.7 mb 0.00 in0.0 mm 0.00 in0.0 mm 0.00 in0.0 mm
02:29 AM 46.0°F7.8°C 39.6°F4.2°C 78% 1.6 mph NNE2.6 kmh NNE 1.3 mph2.1 kmh 30.26 in1024.7 mb 0.00 in0.0 mm 0.00 in0.0 mm 0.00 in0.0 mm
02:27 AM 46.0°F7.8°C 39.6°F4.2°C 78% 2.9 mph ESE4.7 kmh ESE 4.5 mph7.2 kmh 30.26 in1024.7 mb 0.00 in0.0 mm 0.00 in0.0 mm 0.00 in0.0 mm
02:25 AM 46.0°F7.8°C 39.6°F4.2°C 78% 3.1 mph SSE5.0 kmh SSE 3.8 mph6.1 kmh 30.26 in1024.7 mb 0.00 in0.0 mm 0.00 in0.0 mm 0.00 in0.0 mm
02:22 AM 46.0°F7.8°C 39.9°F4.4°C 79% 3.6 mph ESE5.8 kmh ESE 4.5 mph7.2 kmh 30.26 in1024.7 mb 0.00 in0.0 mm 0.00 in0.0 mm 0.00 in0.0 mm
02:20 AM 45.7°F7.6°C 39.6°F4.2°C 79% 4.0 mph SE6.4 kmh SE 5.1 mph8.2 kmh 30.25 in1024.4 mb 0.00 in0.0 mm 0.00 in0.0 mm 0.00 in0.0 mm
02:18 AM 45.7°F7.6°C 39.6°F4.2°C 79% 4.5 mph ESE7.2 kmh ESE 5.1 mph8.2 kmh 30.25 in1024.4 mb 0.00 in0.0 mm 0.00 in0.0 mm 0.00 in0.0 mm
02:16 AM 45.3°F7.4°C 39.2°F4.0°C 79% 4.5 mph SE7.2 kmh SE 6.3 mph10.1 kmh 30.25 in1024.4 mb 0.00 in0.0 mm 0.00 in0.0 mm 0.00 in0.0 mm
02:14 AM 44.8°F7.1°C 38.7°F3.7°C 79% 4.0 mph SE6.4 kmh SE 6.9 mph11.1 kmh 30.25 in1024.4 mb 0.00 in0.0 mm 0.00 in0.0 mm 0.00 in0.0 mm
02:11 AM 44.4°F6.9°C 38.3°F3.5°C 79% 2.9 mph ESE4.7 kmh ESE 5.1 mph8.2 kmh 30.25 in1024.4 mb 0.00 in0.0 mm 0.00 in0.0 mm 0.00 in0.0 mm
02:09 AM 44.4°F6.9°C 38.3°F3.5°C 79% 2.7 mph ESE4.3 kmh ESE 4.3 mph6.9 kmh 30.25 in1024.4 mb 0.00 in0.0 mm 0.00 in0.0 mm 0.00 in0.0 mm
02:07 AM 44.4°F6.9°C 38.3°F3.5°C 79% 2.0 mph SE3.2 kmh SE 7.2 mph11.6 kmh 30.25 in1024.4 mb 0.00 in0.0 mm 0.00 in0.0 mm 0.00 in0.0 mm
02:05 AM 44.2°F6.8°C 38.1°F3.4°C 79% 0.9 mph SE1.4 kmh SE 4.0 mph6.4 kmh 30.25 in1024.4 mb 0.00 in0.0 mm 0.00 in0.0 mm 0.00 in0.0 mm
02:03 AM 44.2°F6.8°C 38.1°F3.4°C 79% 2.2 mph ESE3.5 kmh ESE -- 30.26 in1024.7 mb 0.00 in0.0 mm 0.00 in0.0 mm 0.00 in0.0 mm
01:58 AM 44.4°F6.9°C 38.3°F3.5°C 79% 1.8 mph ESE2.9 kmh ESE 2.2 mph3.5 kmh 30.26 in1024.7 mb 0.00 in0.0 mm 0.00 in0.0 mm 0.00 in0.0 mm
01:56 AM 44.4°F6.9°C 38.3°F3.5°C 79% 1.8 mph SSE2.9 kmh SSE 2.9 mph4.7 kmh 30.26 in1024.7 mb 0.00 in0.0 mm 0.00 in0.0 mm 0.00 in0.0 mm
01:54 AM 44.2°F6.8°C 38.1°F3.4°C 79% 2.2 mph SSE3.5 kmh SSE 3.1 mph5.0 kmh 30.26 in1024.7 mb 0.00 in0.0 mm 0.00 in0.0 mm 0.00 in0.0 mm
01:51 AM 44.2°F6.8°C 38.1°F3.4°C 79% 2.7 mph SE4.3 kmh SE 4.0 mph6.4 kmh 30.26 in1024.7 mb 0.00 in0.0 mm 0.00 in0.0 mm 0.00 in0.0 mm
01:49 AM 44.2°F6.8°C 38.1°F3.4°C 79% 2.7 mph SSE4.3 kmh SSE 3.4 mph5.5 kmh 30.26 in1024.7 mb 0.00 in0.0 mm 0.00 in0.0 mm 0.00 in0.0 mm
01:47 AM 44.4°F6.9°C 38.3°F3.5°C 79% 2.7 mph SE4.3 kmh SE 3.1 mph5.0 kmh 30.26 in1024.7 mb 0.00 in0.0 mm 0.00 in0.0 mm 0.00 in0.0 mm
01:45 AM 44.4°F6.9°C 38.3°F3.5°C 79% 2.7 mph ESE4.3 kmh ESE 4.5 mph7.2 kmh 30.26 in1024.7 mb 0.00 in0.0 mm 0.00 in0.0 mm 0.00 in0.0 mm
01:43 AM 44.6°F7.0°C 38.5°F3.6°C 79% 2.0 mph SE3.2 kmh SE 2.2 mph3.5 kmh 30.26 in1024.7 mb 0.00 in0.0 mm 0.00 in0.0 mm 0.00 in0.0 mm
01:40 AM 44.8°F7.1°C 38.7°F3.7°C 79% 2.0 mph ESE3.2 kmh ESE 2.5 mph4.0 kmh 30.25 in1024.4 mb 0.00 in0.0 mm 0.00 in0.0 mm 0.00 in0.0 mm
01:38 AM 45.0°F7.2°C 39.2°F4.0°C 80% 2.5 mph S4.0 kmh S 4.0 mph6.4 kmh 30.26 in1024.7 mb 0.00 in0.0 mm 0.00 in0.0 mm 0.00 in0.0 mm
01:36 AM 44.8°F7.1°C 39.0°F3.9°C 80% 2.9 mph ESE4.7 kmh ESE 3.8 mph6.1 kmh 30.26 in1024.7 mb 0.00 in0.0 mm 0.00 in0.0 mm 0.00 in0.0 mm
01:34 AM 44.4°F6.9°C 38.7°F3.7°C 80% 2.2 mph SE3.5 kmh SE 2.9 mph4.7 kmh 30.27 in1025.1 mb 0.00 in0.0 mm 0.00 in0.0 mm 0.00 in0.0 mm
01:31 AM 44.2°F6.8°C 38.5°F3.6°C 80% 2.0 mph SE3.2 kmh SE 2.9 mph4.7 kmh 30.26 in1024.7 mb 0.00 in0.0 mm 0.00 in0.0 mm 0.00 in0.0 mm
01:29 AM 43.9°F6.6°C 38.1°F3.4°C 80% 1.8 mph ESE2.9 kmh ESE 2.2 mph3.5 kmh 30.27 in1025.1 mb 0.00 in0.0 mm 0.00 in0.0 mm 0.00 in0.0 mm
01:27 AM 43.7°F6.5°C 37.9°F3.3°C 80% 1.6 mph SE2.6 kmh SE 3.8 mph6.1 kmh 30.27 in1025.1 mb 0.00 in0.0 mm 0.00 in0.0 mm 0.00 in0.0 mm
01:25 AM 43.5°F6.4°C 37.4°F3.0°C 79% 0.4 mph SSE0.6 kmh SSE 2.2 mph3.5 kmh 30.26 in1024.7 mb 0.00 in0.0 mm 0.00 in0.0 mm 0.00 in0.0 mm
01:22 AM 43.5°F6.4°C 37.4°F3.0°C 79% 0.4 mph SSE0.6 kmh SSE 1.1 mph1.8 kmh 30.26 in1024.7 mb 0.00 in0.0 mm 0.00 in0.0 mm 0.00 in0.0 mm
01:20 AM 43.5°F6.4°C 37.4°F3.0°C 79% 0.4 mph SSE0.6 kmh SSE 0.9 mph1.4 kmh 30.26 in1024.7 mb 0.00 in0.0 mm 0.00 in0.0 mm 0.00 in0.0 mm
01:18 AM 43.5°F6.4°C 37.4°F3.0°C 79% 0.2 mph ESE0.3 kmh ESE -- 30.26 in1024.7 mb 0.00 in0.0 mm 0.00 in0.0 mm 0.00 in0.0 mm
01:16 AM 43.7°F6.5°C 37.6°F3.1°C 79% 0.4 mph 0.6 kmh 0.9 mph1.4 kmh 30.26 in1024.7 mb 0.00 in0.0 mm 0.00 in0.0 mm 0.00 in0.0 mm
01:13 AM 43.9°F6.6°C 37.8°F3.2°C 79% 0.7 mph NNW1.1 kmh NNW 1.8 mph2.9 kmh 30.26 in1024.7 mb 0.00 in0.0 mm 0.00 in0.0 mm 0.00 in0.0 mm
01:11 AM 43.9°F6.6°C 37.8°F3.2°C 79% 0.2 mph ESE0.3 kmh ESE -- 30.26 in1024.7 mb 0.00 in0.0 mm 0.00 in0.0 mm 0.00 in0.0 mm
01:09 AM 44.2°F6.8°C 38.1°F3.4°C 79% 0.4 mph ENE0.6 kmh ENE 0.9 mph1.4 kmh 30.25 in1024.4 mb 0.00 in0.0 mm 0.00 in0.0 mm 0.00 in0.0 mm
01:07 AM 44.4°F6.9°C 38.3°F3.5°C 79% 0.4 mph NE0.6 kmh NE -- 30.25 in1024.4 mb 0.00 in0.0 mm 0.00 in0.0 mm 0.00 in0.0 mm
01:05 AM 44.4°F6.9°C 38.3°F3.5°C 79% 0.9 mph WNW1.4 kmh WNW -- 30.25 in1024.4 mb 0.00 in0.0 mm 0.00 in0.0 mm 0.00 in0.0 mm
01:03 AM 44.4°F6.9°C 38.3°F3.5°C 79% 1.8 mph SSE2.9 kmh SSE 2.9 mph4.7 kmh 30.25 in1024.4 mb 0.00 in0.0 mm 0.00 in0.0 mm 0.00 in0.0 mm
01:00 AM 44.4°F6.9°C 38.3°F3.5°C 79% 1.8 mph SE2.9 kmh SE 2.5 mph4.0 kmh 30.25 in1024.4 mb 0.00 in0.0 mm 0.00 in0.0 mm 0.00 in0.0 mm
12:58 AM 44.4°F6.9°C 38.3°F3.5°C 79% 2.2 mph S3.5 kmh S 2.9 mph4.7 kmh 30.25 in1024.4 mb 0.00 in0.0 mm 0.00 in0.0 mm 0.00 in0.0 mm
12:56 AM 44.6°F7.0°C 38.5°F3.6°C 79% 1.8 mph SE2.9 kmh SE 2.7 mph4.3 kmh 30.25 in1024.4 mb 0.00 in0.0 mm 0.00 in0.0 mm 0.00 in0.0 mm
12:54 AM 44.8°F7.1°C 38.7°F3.7°C 79% 1.6 mph SE2.6 kmh SE 2.2 mph3.5 kmh 30.25 in1024.4 mb 0.00 in0.0 mm 0.00 in0.0 mm 0.00 in0.0 mm
12:51 AM 44.8°F7.1°C 38.7°F3.7°C 79% 1.1 mph SSE1.8 kmh SSE 2.0 mph3.2 kmh 30.25 in1024.4 mb 0.00 in0.0 mm 0.00 in0.0 mm 0.00 in0.0 mm
12:49 AM 45.0°F7.2°C 38.8°F3.8°C 79% 0.9 mph SSE1.4 kmh SSE 1.8 mph2.9 kmh 30.25 in1024.4 mb 0.00 in0.0 mm 0.00 in0.0 mm 0.00 in0.0 mm
12:47 AM 44.8°F7.1°C 38.7°F3.7°C 79% 0.7 mph ESE1.1 kmh ESE 1.6 mph2.6 kmh 30.25 in1024.4 mb 0.00 in0.0 mm 0.00 in0.0 mm 0.00 in0.0 mm
12:45 AM 44.8°F7.1°C 38.7°F3.7°C 79% 0.4 mph SE0.6 kmh SE -- 30.25 in1024.4 mb 0.00 in0.0 mm 0.00 in0.0 mm 0.00 in0.0 mm
12:42 AM 44.8°F7.1°C 38.7°F3.7°C 79% 0.7 mph SW1.1 kmh SW 1.6 mph2.6 kmh 30.25 in1024.4 mb 0.00 in0.0 mm 0.00 in0.0 mm 0.00 in0.0 mm
12:40 AM 44.8°F7.1°C 38.7°F3.7°C 79% 0.9 mph WSW1.4 kmh WSW -- 30.25 in1024.4 mb 0.00 in0.0 mm 0.00 in0.0 mm 0.00 in0.0 mm
12:38 AM 44.8°F7.1°C 38.7°F3.7°C 79% 1.6 mph SE2.6 kmh SE 2.0 mph3.2 kmh 30.25 in1024.4 mb 0.00 in0.0 mm 0.00 in0.0 mm 0.00 in0.0 mm
12:36 AM 45.0°F7.2°C 38.8°F3.8°C 79% 2.0 mph SE3.2 kmh SE 2.7 mph4.3 kmh 30.25 in1024.4 mb 0.00 in0.0 mm 0.00 in0.0 mm 0.00 in0.0 mm
12:33 AM 45.1°F7.3°C 39.4°F4.1°C 80% 2.0 mph ESE3.2 kmh ESE 2.0 mph3.2 kmh 30.26 in1024.7 mb 0.00 in0.0 mm 0.00 in0.0 mm 0.00 in0.0 mm
12:31 AM 45.0°F7.2°C 39.2°F4.0°C 80% 2.9 mph ESE4.7 kmh ESE 4.5 mph7.2 kmh 30.25 in1024.4 mb 0.00 in0.0 mm 0.00 in0.0 mm 0.00 in0.0 mm
12:29 AM 44.8°F7.1°C 39.0°F3.9°C 80% 2.9 mph ESE4.7 kmh ESE 3.4 mph5.5 kmh 30.25 in1024.4 mb 0.00 in0.0 mm 0.00 in0.0 mm 0.00 in0.0 mm
12:27 AM 44.4°F6.9°C 38.7°F3.7°C 80% 3.1 mph ESE5.0 kmh ESE 3.8 mph6.1 kmh 30.25 in1024.4 mb 0.00 in0.0 mm 0.00 in0.0 mm 0.00 in0.0 mm
12:24 AM 44.2°F6.8°C 38.5°F3.6°C 80% 2.7 mph SE4.3 kmh SE 3.8 mph6.1 kmh 30.25 in1024.4 mb 0.00 in0.0 mm 0.00 in0.0 mm 0.00 in0.0 mm
12:22 AM 44.4°F6.9°C 38.7°F3.7°C 80% 2.5 mph SE4.0 kmh SE 2.5 mph4.0 kmh 30.25 in1024.4 mb 0.00 in0.0 mm 0.00 in0.0 mm 0.00 in0.0 mm
12:20 AM 44.8°F7.1°C 39.0°F3.9°C 80% 2.5 mph ESE4.0 kmh ESE 4.0 mph6.4 kmh 30.25 in1024.4 mb 0.00 in0.0 mm 0.00 in0.0 mm 0.00 in0.0 mm
12:18 AM 45.1°F7.3°C 39.4°F4.1°C 80% 1.6 mph ESE2.6 kmh ESE 1.3 mph2.1 kmh 30.25 in1024.4 mb 0.00 in0.0 mm 0.00 in0.0 mm 0.00 in0.0 mm
12:16 AM 45.1°F7.3°C 39.4°F4.1°C 80% 2.2 mph S3.5 kmh S 2.2 mph3.5 kmh 30.25 in1024.4 mb 0.00 in0.0 mm 0.00 in0.0 mm 0.00 in0.0 mm
12:13 AM 45.1°F7.3°C 39.4°F4.1°C 80% 2.9 mph SE4.7 kmh SE 4.0 mph6.4 kmh 30.24 in1024.0 mb 0.00 in0.0 mm 0.00 in0.0 mm 0.00 in0.0 mm
12:11 AM 45.0°F7.2°C 39.6°F4.2°C 81% 3.4 mph SE5.5 kmh SE 4.0 mph6.4 kmh 30.24 in1024.0 mb 0.00 in0.0 mm 0.00 in0.0 mm 0.00 in0.0 mm
12:09 AM 45.0°F7.2°C 39.6°F4.2°C 81% 3.4 mph ESE5.5 kmh ESE 4.5 mph7.2 kmh 30.24 in1024.0 mb 0.00 in0.0 mm 0.00 in0.0 mm 0.00 in0.0 mm
12:07 AM 44.8°F7.1°C 39.4°F4.1°C 81% 2.9 mph ESE4.7 kmh ESE 4.3 mph6.9 kmh 30.24 in1024.0 mb 0.00 in0.0 mm 0.00 in0.0 mm 0.00 in0.0 mm
12:04 AM 44.6°F7.0°C 39.2°F4.0°C 81% 2.2 mph SE3.5 kmh SE 4.9 mph7.9 kmh 30.24 in1024.0 mb 0.00 in0.0 mm 0.00 in0.0 mm 0.00 in0.0 mm
12:02 AM 44.4°F6.9°C 39.0°F3.9°C 81% 2.2 mph SSE3.5 kmh SSE 2.5 mph4.0 kmh 30.24 in1024.0 mb 0.00 in0.0 mm 0.00 in0.0 mm 0.00 in0.0 mm
12:00 AM 44.4°F6.9°C 39.0°F3.9°C 81% 2.2 mph SSE3.5 kmh SSE 2.2 mph3.5 kmh 30.25 in1024.4 mb 0.00 in0.0 mm 0.00 in0.0 mm 0.00 in0.0 mm